Time,TemperatureF,DewpointF,PressureIn,WindDirection,WindDirectionDegrees,WindSpeedMPH,WindSpeedGustMPH,Humidity,HourlyPrecipIn,Conditions,Clouds,dailyrainin,SoftwareType,DateUTC
2015-07-06 00:00:00,80.5,73.4,30.12,North,355,10.0,17.0,79,0.00,,---,0.00,VWS V14.01,2015-07-06 04:00:00,
2015-07-06 00:01:00,80.5,73.4,30.12,NNW,341,11.0,11.0,79,0.00,,---,0.00,VWS V14.01,2015-07-06 04:01:00,
2015-07-06 00:02:00,80.3,73.6,30.12,North,355,5.0,11.0,80,0.00,,---,0.00,VWS V14.01,2015-07-06 04:02:00,
2015-07-06 00:03:00,80.1,73.4,30.12,NNW,340,6.0,11.0,80,0.00,,---,0.00,VWS V14.01,2015-07-06 04:03:00,
2015-07-06 00:04:00,79.9,73.6,30.12,NNW,344,9.0,11.0,81,0.00,,---,0.00,VWS V14.01,2015-07-06 04:04:00,
2015-07-06 00:05:00,79.8,73.4,30.12,NNW,345,3.0,11.0,81,0.00,,---,0.00,VWS V14.01,2015-07-06 04:05:00,
2015-07-06 00:06:00,79.6,73.6,30.12,NNW,347,4.0,11.0,82,0.00,,---,0.00,VWS V14.01,2015-07-06 04:06:00,
2015-07-06 00:07:00,79.4,73.4,30.12,NNW,346,5.0,11.0,82,0.00,,---,0.00,VWS V14.01,2015-07-06 04:07:00,
2015-07-06 00:08:00,79.4,73.4,30.12,North,360,12.0,12.0,82,0.00,,---,0.00,VWS V14.01,2015-07-06 04:08:00,
2015-07-06 00:09:00,79.2,73.6,30.12,NNW,336,10.0,12.0,83,0.00,,---,0.00,VWS V14.01,2015-07-06 04:09:00,
2015-07-06 00:10:00,79.0,73.4,30.12,NNW,331,8.0,12.0,83,0.00,,---,0.00,VWS V14.01,2015-07-06 04:10:00,
2015-07-06 00:11:00,78.8,73.2,30.12,NNW,334,8.0,12.0,83,0.00,,---,0.00,VWS V14.01,2015-07-06 04:11:00,
2015-07-06 00:12:00,78.6,73.0,30.12,NW,316,11.0,12.0,83,0.00,,---,0.00,VWS V14.01,2015-07-06 04:12:00,
2015-07-06 00:13:00,78.6,73.4,30.12,NNW,343,8.0,12.0,84,0.00,,---,0.00,VWS V14.01,2015-07-06 04:13:00,
2015-07-06 00:14:00,78.5,73.3,30.12,North,355,5.0,12.0,84,0.00,,---,0.00,VWS V14.01,2015-07-06 04:14:00,
2015-07-06 00:15:00,78.3,73.1,30.12,NNW,340,7.0,12.0,84,0.00,,---,0.00,VWS V14.01,2015-07-06 04:15:00,
2015-07-06 00:16:00,78.3,73.4,30.12,NNW,348,4.0,12.0,85,0.00,,---,0.00,VWS V14.01,2015-07-06 04:16:00,
2015-07-06 00:17:00,78.1,73.2,30.12,NW,325,6.0,12.0,85,0.00,,---,0.00,VWS V14.01,2015-07-06 04:17:00,
2015-07-06 00:19:00,77.9,73.0,30.12,North,350,7.0,15.0,85,0.00,,---,0.00,VWS V14.01,2015-07-06 04:19:00,
2015-07-06 00:20:00,77.9,73.4,30.12,NNW,342,7.0,15.0,86,0.00,,---,0.00,VWS V14.01,2015-07-06 04:20:00,
2015-07-06 00:21:00,77.7,73.2,30.12,NNW,338,13.0,15.0,86,0.00,,---,0.00,VWS V14.01,2015-07-06 04:21:00,
2015-07-06 00:22:00,77.6,73.1,30.12,NW,325,6.0,15.0,86,0.00,,---,0.00,VWS V14.01,2015-07-06 04:22:00,
2015-07-06 00:23:00,77.6,73.1,30.12,North,5,13.0,15.0,86,0.00,,---,0.00,VWS V14.01,2015-07-06 04:23:00,
2015-07-06 00:24:00,77.4,73.2,30.12,NNW,336,2.0,15.0,87,0.00,,---,0.00,VWS V14.01,2015-07-06 04:24:00,
2015-07-06 00:25:00,77.4,73.6,30.12,NNW,331,2.0,15.0,88,0.00,,---,0.00,VWS V14.01,2015-07-06 04:25:00,
2015-07-06 00:26:00,77.4,73.6,30.12,NNW,336,5.0,15.0,88,0.00,,---,0.00,VWS V14.01,2015-07-06 04:26:00,
2015-07-06 00:27:00,77.2,73.4,30.12,NW,315,7.0,15.0,88,0.00,,---,0.00,VWS V14.01,2015-07-06 04:27:00,
2015-07-06 00:28:00,77.2,73.4,30.12,NW,313,3.0,15.0,88,0.00,,---,0.00,VWS V14.01,2015-07-06 04:28:00,
2015-07-06 00:29:00,77.0,73.5,30.12,NW,317,7.0,15.0,89,0.00,,---,0.00,VWS V14.01,2015-07-06 04:29:00,
2015-07-06 00:30:00,77.0,73.5,30.13,NW,326,3.0,15.0,89,0.00,,---,0.00,VWS V14.01,2015-07-06 04:30:00,
2015-07-06 00:31:00,76.8,73.7,30.13,WNW,292,3.0,9.0,90,0.02,,---,0.02,VWS V14.01,2015-07-06 04:31:00,
2015-07-06 00:32:00,76.7,73.9,30.13,NW,305,3.0,9.0,91,0.03,,---,0.03,VWS V14.01,2015-07-06 04:32:00,
2015-07-06 00:33:00,76.7,73.9,30.13,North,349,3.0,9.0,91,0.04,,---,0.04,VWS V14.01,2015-07-06 04:33:00,
2015-07-06 00:34:00,76.7,74.2,30.13,North,349,3.0,9.0,92,0.05,,---,0.05,VWS V14.01,2015-07-06 04:34:00,
2015-07-06 00:35:00,76.5,74.0,30.13,North,349,2.0,9.0,92,0.05,,---,0.05,VWS V14.01,2015-07-06 04:35:00,
2015-07-06 00:36:00,76.5,74.3,30.13,NNW,347,7.0,9.0,93,0.06,,---,0.06,VWS V14.01,2015-07-06 04:36:00,
2015-07-06 00:37:00,76.3,74.1,30.13,North,349,3.0,9.0,93,0.06,,---,0.06,VWS V14.01,2015-07-06 04:37:00,
2015-07-06 00:38:00,76.1,74.2,30.13,NNW,348,4.0,9.0,94,0.06,,---,0.06,VWS V14.01,2015-07-06 04:38:00,
2015-07-06 00:39:00,76.1,74.2,30.13,NNW,347,4.0,9.0,94,0.07,,---,0.07,VWS V14.01,2015-07-06 04:39:00,
2015-07-06 00:40:00,76.0,74.2,30.13,NNW,345,1.0,9.0,94,0.07,,---,0.07,VWS V14.01,2015-07-06 04:40:00,
2015-07-06 00:41:00,76.0,74.2,30.13,NNW,345,2.0,9.0,94,0.07,,---,0.07,VWS V14.01,2015-07-06 04:41:00,
2015-07-06 00:42:00,75.8,74.3,30.13,NNW,345,1.0,9.0,95,0.07,,---,0.07,VWS V14.01,2015-07-06 04:42:00,
2015-07-06 00:43:00,75.8,74.3,30.13,NNW,346,2.0,9.0,95,0.08,,---,0.08,VWS V14.01,2015-07-06 04:43:00,
2015-07-06 00:44:00,75.8,74.3,30.13,NNW,346,2.0,9.0,95,0.08,,---,0.08,VWS V14.01,2015-07-06 04:44:00,
2015-07-06 00:45:00,75.6,74.4,30.12,NNW,345,4.0,9.0,96,0.08,,---,0.08,VWS V14.01,2015-07-06 04:45:00,
2015-07-06 00:46:00,75.6,74.4,30.12,NNW,345,1.0,9.0,96,0.09,,---,0.09,VWS V14.01,2015-07-06 04:46:00,
2015-07-06 00:47:00,75.6,74.4,30.12,NNW,345,6.0,9.0,96,0.09,,---,0.09,VWS V14.01,2015-07-06 04:47:00,
2015-07-06 00:48:00,75.6,74.4,30.12,NNW,346,1.0,9.0,96,0.10,,---,0.10,VWS V14.01,2015-07-06 04:48:00,
2015-07-06 00:49:00,75.4,74.2,30.12,NNW,346,0.0,9.0,96,0.10,,---,0.10,VWS V14.01,2015-07-06 04:49:00,
2015-07-06 00:50:00,75.4,74.2,30.12,NNW,346,4.0,9.0,96,0.11,,---,0.11,VWS V14.01,2015-07-06 04:50:00,
2015-07-06 00:51:00,75.3,74.1,30.12,NNW,346,1.0,9.0,96,0.11,,---,0.11,VWS V14.01,2015-07-06 04:51:00,
2015-07-06 00:52:00,75.3,74.4,30.12,NNW,346,0.0,9.0,97,0.12,,---,0.12,VWS V14.01,2015-07-06 04:52:00,
2015-07-06 00:53:00,75.3,74.1,30.12,NNW,343,3.0,9.0,96,0.12,,---,0.12,VWS V14.01,2015-07-06 04:53:00,
2015-07-06 00:54:00,75.1,74.2,30.12,NNW,342,3.0,9.0,97,0.13,,---,0.13,VWS V14.01,2015-07-06 04:54:00,
2015-07-06 00:55:00,74.9,74.0,30.12,NNW,342,0.0,9.0,97,0.13,,---,0.13,VWS V14.01,2015-07-06 04:55:00,
2015-07-06 00:56:00,74.9,74.3,30.12,NNW,342,0.0,9.0,98,0.13,,---,0.13,VWS V14.01,2015-07-06 04:56:00,
2015-07-06 00:57:00,74.9,74.3,30.12,NNW,342,2.0,9.0,98,0.14,,---,0.14,VWS V14.01,2015-07-06 04:57:00,
2015-07-06 00:58:00,74.7,74.1,30.12,WNW,294,1.0,9.0,98,0.15,,---,0.15,VWS V14.01,2015-07-06 04:58:00,
2015-07-06 00:59:00,74.7,74.1,30.12,WNW,294,0.0,9.0,98,0.17,,---,0.17,VWS V14.01,2015-07-06 04:59:00,
2015-07-06 01:00:00,74.6,74.0,30.13,WNW,294,0.0,9.0,98,0.18,,---,0.18,VWS V14.01,2015-07-06 05:00:00,
2015-07-06 01:01:00,74.6,74.0,30.13,WNW,294,1.0,2.0,98,0.19,,---,0.19,VWS V14.01,2015-07-06 05:01:00,
2015-07-06 01:02:00,74.6,74.0,30.13,WNW,294,1.0,2.0,98,0.20,,---,0.20,VWS V14.01,2015-07-06 05:02:00,
2015-07-06 01:03:00,74.4,73.8,30.13,WNW,295,3.0,3.0,98,0.21,,---,0.21,VWS V14.01,2015-07-06 05:03:00,
2015-07-06 01:04:00,74.4,73.8,30.13,WNW,295,1.0,3.0,98,0.22,,---,0.22,VWS V14.01,2015-07-06 05:04:00,
2015-07-06 01:05:00,74.4,73.8,30.13,WNW,295,1.0,3.0,98,0.22,,---,0.22,VWS V14.01,2015-07-06 05:05:00,
2015-07-06 01:06:00,74.4,74.1,30.13,WNW,295,4.0,4.0,99,0.23,,---,0.23,VWS V14.01,2015-07-06 05:06:00,
2015-07-06 01:07:00,74.4,74.1,30.13,WNW,295,3.0,4.0,99,0.24,,---,0.24,VWS V14.01,2015-07-06 05:07:00,
2015-07-06 01:08:00,74.2,73.9,30.13,WNW,295,4.0,4.0,99,0.25,,---,0.25,VWS V14.01,2015-07-06 05:08:00,
2015-07-06 01:09:00,74.2,73.9,30.13,WNW,295,3.0,4.0,99,0.26,,---,0.26,VWS V14.01,2015-07-06 05:09:00,
2015-07-06 01:10:00,74.2,73.9,30.13,WNW,295,2.0,4.0,99,0.27,,---,0.27,VWS V14.01,2015-07-06 05:10:00,
2015-07-06 01:11:00,74.2,73.9,30.13,WNW,295,0.0,4.0,99,0.27,,---,0.27,VWS V14.01,2015-07-06 05:11:00,
2015-07-06 01:12:00,74.2,73.9,30.13,WNW,297,6.0,6.0,99,0.28,,---,0.28,VWS V14.01,2015-07-06 05:12:00,
2015-07-06 01:13:00,74.0,73.7,30.13,WNW,298,0.0,6.0,99,0.28,,---,0.28,VWS V14.01,2015-07-06 05:13:00,
2015-07-06 01:14:00,74.0,73.7,30.13,WNW,298,5.0,6.0,99,0.28,,---,0.28,VWS V14.01,2015-07-06 05:14:00,
2015-07-06 01:15:00,74.0,73.7,30.11,NW,309,3.0,6.0,99,0.29,,---,0.29,VWS V14.01,2015-07-06 05:15:00,
2015-07-06 01:16:00,74.0,73.7,30.11,NW,309,3.0,6.0,99,0.29,,---,0.29,VWS V14.01,2015-07-06 05:16:00,
2015-07-06 01:17:00,74.0,74.0,30.11,NW,310,6.0,6.0,100,0.29,,---,0.29,VWS V14.01,2015-07-06 05:17:00,
2015-07-06 01:18:00,73.9,73.9,30.11,NW,310,2.0,6.0,100,0.29,,---,0.29,VWS V14.01,2015-07-06 05:18:00,
2015-07-06 01:19:00,73.9,73.9,30.11,NW,312,5.0,6.0,100,0.29,,---,0.29,VWS V14.01,2015-07-06 05:19:00,
2015-07-06 01:20:00,73.9,73.9,30.11,NW,312,3.0,6.0,100,0.29,,---,0.29,VWS V14.01,2015-07-06 05:20:00,
2015-07-06 01:21:00,73.9,73.9,30.11,NW,312,3.0,6.0,100,0.29,,---,0.29,VWS V14.01,2015-07-06 05:21:00,
2015-07-06 01:22:00,73.9,73.9,30.11,NW,312,0.0,6.0,100,0.29,,---,0.29,VWS V14.01,2015-07-06 05:22:00,
2015-07-06 01:23:00,73.9,73.9,30.11,NW,312,4.0,6.0,100,0.29,,---,0.29,VWS V14.01,2015-07-06 05:23:00,
2015-07-06 01:24:00,73.9,73.9,30.11,NW,312,2.0,6.0,100,0.30,,---,0.30,VWS V14.01,2015-07-06 05:24:00,
2015-07-06 01:25:00,73.9,73.9,30.11,NW,312,4.0,6.0,100,0.30,,---,0.30,VWS V14.01,2015-07-06 05:25:00,
2015-07-06 01:26:00,73.7,73.7,30.11,NW,312,0.0,6.0,100,0.30,,---,0.30,VWS V14.01,2015-07-06 05:26:00,
2015-07-06 01:27:00,73.7,73.7,30.11,NW,312,0.0,6.0,100,0.30,,---,0.30,VWS V14.01,2015-07-06 05:27:00,
2015-07-06 01:28:00,73.7,73.7,30.11,NW,312,0.0,6.0,100,0.30,,---,0.30,VWS V14.01,2015-07-06 05:28:00,
2015-07-06 01:29:00,73.7,73.7,30.11,NW,312,4.0,6.0,100,0.30,,---,0.30,VWS V14.01,2015-07-06 05:29:00,
2015-07-06 01:30:00,73.7,73.7,30.10,NW,312,2.0,6.0,100,0.30,,---,0.30,VWS V14.01,2015-07-06 05:30:00,
2015-07-06 01:31:00,73.7,73.7,30.10,NW,312,5.0,5.0,100,0.29,,---,0.30,VWS V14.01,2015-07-06 05:31:00,
2015-07-06 01:32:00,73.7,73.7,30.10,NW,313,1.0,5.0,100,0.29,,---,0.30,VWS V14.01,2015-07-06 05:32:00,
2015-07-06 01:33:00,73.7,73.7,30.10,NW,313,3.0,5.0,100,0.29,,---,0.30,VWS V14.01,2015-07-06 05:33:00,
2015-07-06 01:34:00,73.7,73.7,30.10,NW,313,0.0,5.0,100,0.29,,---,0.30,VWS V14.01,2015-07-06 05:34:00,
2015-07-06 01:35:00,73.7,73.7,30.10,NW,313,0.0,5.0,100,0.29,,---,0.30,VWS V14.01,2015-07-06 05:35:00,
2015-07-06 01:36:00,73.7,73.7,30.10,NW,313,1.0,5.0,100,0.29,,---,0.30,VWS V14.01,2015-07-06 05:36:00,
2015-07-06 01:37:00,73.5,73.5,30.10,NW,313,0.0,5.0,100,0.29,,---,0.30,VWS V14.01,2015-07-06 05:37:00,
2015-07-06 01:38:00,73.5,73.5,30.10,NW,313,0.0,5.0,100,0.29,,---,0.30,VWS V14.01,2015-07-06 05:38:00,
2015-07-06 01:39:00,73.5,73.5,30.10,NW,313,1.0,5.0,100,0.29,,---,0.30,VWS V14.01,2015-07-06 05:39:00,
2015-07-06 01:40:00,73.5,73.5,30.10,NW,313,0.0,5.0,100,0.29,,---,0.30,VWS V14.01,2015-07-06 05:40:00,
2015-07-06 01:41:00,73.5,73.5,30.10,NW,313,0.0,5.0,100,0.29,,---,0.30,VWS V14.01,2015-07-06 05:41:00,
2015-07-06 01:42:00,73.5,73.5,30.10,NW,313,0.0,5.0,100,0.29,,---,0.30,VWS V14.01,2015-07-06 05:42:00,
2015-07-06 01:43:00,73.5,73.5,30.10,NW,313,0.0,5.0,100,0.29,,---,0.30,VWS V14.01,2015-07-06 05:43:00,
2015-07-06 01:44:00,73.5,73.5,30.10,NW,313,2.0,5.0,100,0.29,,---,0.30,VWS V14.01,2015-07-06 05:44:00,
2015-07-06 01:45:00,73.5,73.5,30.09,NW,313,2.0,5.0,100,0.29,,---,0.30,VWS V14.01,2015-07-06 05:45:00,
2015-07-06 01:46:00,73.5,73.5,30.09,NW,313,1.0,5.0,100,0.29,,---,0.30,VWS V14.01,2015-07-06 05:46:00,
2015-07-06 01:47:00,73.5,73.5,30.09,NW,313,2.0,5.0,100,0.29,,---,0.30,VWS V14.01,2015-07-06 05:47:00,
2015-07-06 01:48:00,73.5,73.5,30.09,NW,313,4.0,5.0,100,0.29,,---,0.30,VWS V14.01,2015-07-06 05:48:00,
2015-07-06 01:49:00,73.5,73.5,30.09,NW,313,0.0,5.0,100,0.29,,---,0.30,VWS V14.01,2015-07-06 05:49:00,
2015-07-06 01:50:00,73.3,73.3,30.09,NW,313,0.0,5.0,100,0.29,,---,0.30,VWS V14.01,2015-07-06 05:50:00,
2015-07-06 01:51:00,73.3,73.3,30.09,NW,313,3.0,5.0,100,0.29,,---,0.30,VWS V14.01,2015-07-06 05:51:00,
2015-07-06 01:52:00,73.3,73.3,30.09,NW,313,2.0,5.0,100,0.29,,---,0.30,VWS V14.01,2015-07-06 05:52:00,
2015-07-06 01:53:00,73.3,73.3,30.09,NW,313,0.0,5.0,100,0.29,,---,0.30,VWS V14.01,2015-07-06 05:53:00,
2015-07-06 01:54:00,73.3,73.3,30.09,NW,313,2.0,5.0,100,0.29,,---,0.30,VWS V14.01,2015-07-06 05:54:00,
2015-07-06 01:55:00,73.3,73.3,30.09,NW,313,2.0,5.0,100,0.29,,---,0.30,VWS V14.01,2015-07-06 05:55:00,
2015-07-06 01:56:00,73.3,73.3,30.09,NW,313,1.0,5.0,100,0.29,,---,0.30,VWS V14.01,2015-07-06 05:56:00,
2015-07-06 01:57:00,73.3,73.3,30.09,NW,313,2.0,5.0,100,0.29,,---,0.30,VWS V14.01,2015-07-06 05:57:00,
2015-07-06 01:58:00,73.3,73.3,30.09,NW,313,1.0,5.0,100,0.29,,---,0.30,VWS V14.01,2015-07-06 05:58:00,
2015-07-06 01:59:00,73.3,73.3,30.09,NW,313,0.0,5.0,100,0.29,,---,0.30,VWS V14.01,2015-07-06 05:59:00,
2015-07-06 02:00:00,73.3,73.3,30.09,NW,313,2.0,5.0,100,0.29,,---,0.30,VWS V14.01,2015-07-06 06:00:00,
2015-07-06 02:01:00,73.3,73.3,30.09,NW,313,0.0,2.0,100,0.12,,---,0.30,VWS V14.01,2015-07-06 06:01:00,
2015-07-06 02:02:00,73.3,73.3,30.09,NW,313,3.0,3.0,100,0.12,,---,0.30,VWS V14.01,2015-07-06 06:02:00,
2015-07-06 02:03:00,73.3,73.3,30.09,NW,313,0.0,3.0,100,0.12,,---,0.30,VWS V14.01,2015-07-06 06:03:00,
2015-07-06 02:04:00,73.3,73.3,30.09,NW,313,0.0,3.0,100,0.12,,---,0.30,VWS V14.01,2015-07-06 06:04:00,
2015-07-06 02:05:00,73.3,73.3,30.09,NW,313,0.0,3.0,100,0.12,,---,0.30,VWS V14.01,2015-07-06 06:05:00,
2015-07-06 02:06:00,73.3,73.3,30.09,NW,313,0.0,3.0,100,0.12,,---,0.30,VWS V14.01,2015-07-06 06:06:00,
2015-07-06 02:07:00,73.3,73.3,30.09,NW,313,1.0,3.0,100,0.12,,---,0.30,VWS V14.01,2015-07-06 06:07:00,
2015-07-06 02:08:00,73.2,73.2,30.09,NW,313,0.0,3.0,100,0.12,,---,0.30,VWS V14.01,2015-07-06 06:08:00,
2015-07-06 02:09:00,73.2,73.2,30.09,NW,313,0.0,3.0,100,0.12,,---,0.30,VWS V14.01,2015-07-06 06:09:00,
2015-07-06 02:10:00,73.2,73.2,30.09,NW,313,2.0,3.0,100,0.12,,---,0.30,VWS V14.01,2015-07-06 06:10:00,
2015-07-06 02:11:00,73.2,73.2,30.09,NW,313,2.0,3.0,100,0.12,,---,0.30,VWS V14.01,2015-07-06 06:11:00,
2015-07-06 02:12:00,73.2,73.2,30.09,NW,313,1.0,3.0,100,0.12,,---,0.30,VWS V14.01,2015-07-06 06:12:00,
2015-07-06 02:13:00,73.2,73.2,30.09,NW,313,1.0,3.0,100,0.12,,---,0.30,VWS V14.01,2015-07-06 06:13:00,
2015-07-06 02:14:00,73.2,73.2,30.09,NW,313,0.0,3.0,100,0.12,,---,0.30,VWS V14.01,2015-07-06 06:14:00,
2015-07-06 02:15:00,73.2,73.2,30.08,NW,313,0.0,3.0,100,0.12,,---,0.30,VWS V14.01,2015-07-06 06:15:00,
2015-07-06 02:16:00,73.2,73.2,30.08,NW,313,0.0,3.0,100,0.12,,---,0.30,VWS V14.01,2015-07-06 06:16:00,
2015-07-06 02:17:00,73.2,73.2,30.08,NW,313,0.0,3.0,100,0.12,,---,0.30,VWS V14.01,2015-07-06 06:17:00,
2015-07-06 02:18:00,73.2,73.2,30.08,NW,313,0.0,3.0,100,0.12,,---,0.30,VWS V14.01,2015-07-06 06:18:00,
2015-07-06 02:19:00,73.2,73.2,30.08,NW,313,2.0,3.0,100,0.12,,---,0.30,VWS V14.01,2015-07-06 06:19:00,
2015-07-06 02:20:00,73.2,73.2,30.08,NW,313,0.0,3.0,100,0.12,,---,0.30,VWS V14.01,2015-07-06 06:20:00,
2015-07-06 02:21:00,73.2,73.2,30.08,NW,313,0.0,3.0,100,0.12,,---,0.30,VWS V14.01,2015-07-06 06:21:00,
2015-07-06 02:22:00,73.2,73.2,30.08,NW,313,0.0,3.0,100,0.12,,---,0.30,VWS V14.01,2015-07-06 06:22:00,
2015-07-06 02:23:00,73.2,73.2,30.08,NW,313,0.0,3.0,100,0.12,,---,0.30,VWS V14.01,2015-07-06 06:23:00,
2015-07-06 02:24:00,73.2,73.2,30.08,NW,313,0.0,3.0,100,0.12,,---,0.30,VWS V14.01,2015-07-06 06:24:00,
2015-07-06 02:25:00,73.0,73.0,30.08,NW,313,1.0,3.0,100,0.12,,---,0.30,VWS V14.01,2015-07-06 06:25:00,
2015-07-06 02:26:00,73.0,73.0,30.08,NW,313,0.0,3.0,100,0.12,,---,0.30,VWS V14.01,2015-07-06 06:26:00,
2015-07-06 02:27:00,73.0,73.0,30.08,NW,313,0.0,3.0,100,0.12,,---,0.30,VWS V14.01,2015-07-06 06:27:00,
2015-07-06 02:28:00,73.0,73.0,30.08,NW,313,0.0,4.0,100,0.12,,---,0.30,VWS V14.01,2015-07-06 06:28:00,
2015-07-06 02:29:00,73.0,73.0,30.08,NW,313,0.0,4.0,100,0.12,,---,0.30,VWS V14.01,2015-07-06 06:29:00,
2015-07-06 02:30:00,73.0,73.0,30.07,NW,313,0.0,4.0,100,0.12,,---,0.30,VWS V14.01,2015-07-06 06:30:00,
2015-07-06 02:31:00,73.0,73.0,30.07,NW,313,0.0,0.0,100,0.00,,---,0.30,VWS V14.01,2015-07-06 06:31:00,
2015-07-06 02:32:00,73.0,73.0,30.07,NW,313,0.0,0.0,100,0.00,,---,0.30,VWS V14.01,2015-07-06 06:32:00,
2015-07-06 02:33:00,73.0,73.0,30.07,NW,313,0.0,0.0,100,0.00,,---,0.30,VWS V14.01,2015-07-06 06:33:00,
2015-07-06 02:34:00,72.8,72.8,30.07,NW,313,0.0,0.0,100,0.00,,---,0.30,VWS V14.01,2015-07-06 06:34:00,
2015-07-06 02:35:00,72.8,72.8,30.07,NW,313,0.0,0.0,100,0.00,,---,0.30,VWS V14.01,2015-07-06 06:35:00,
2015-07-06 02:36:00,72.8,72.8,30.07,NW,313,0.0,0.0,100,0.00,,---,0.30,VWS V14.01,2015-07-06 06:36:00,
2015-07-06 02:37:00,72.8,72.8,30.07,NW,313,0.0,0.0,100,0.00,,---,0.30,VWS V14.01,2015-07-06 06:37:00,
2015-07-06 02:38:00,72.8,72.8,30.07,NW,313,0.0,0.0,100,0.00,,---,0.30,VWS V14.01,2015-07-06 06:38:00,
2015-07-06 02:39:00,72.8,72.8,30.07,NW,313,0.0,0.0,100,0.00,,---,0.30,VWS V14.01,2015-07-06 06:39:00,
2015-07-06 02:40:00,72.8,72.8,30.07,NW,313,0.0,0.0,100,0.00,,---,0.30,VWS V14.01,2015-07-06 06:40:00,
2015-07-06 02:41:00,72.8,72.8,30.07,NW,313,0.0,0.0,100,0.00,,---,0.30,VWS V14.01,2015-07-06 06:41:00,
2015-07-06 02:42:00,72.8,72.8,30.07,NW,313,0.0,0.0,100,0.00,,---,0.30,VWS V14.01,2015-07-06 06:42:00,
2015-07-06 02:43:00,72.8,72.8,30.07,NW,313,0.0,0.0,100,0.00,,---,0.30,VWS V14.01,2015-07-06 06:43:00,
2015-07-06 02:44:00,72.8,72.8,30.07,NW,313,0.0,0.0,100,0.00,,---,0.30,VWS V14.01,2015-07-06 06:44:00,
2015-07-06 02:45:00,72.8,72.8,30.07,NW,313,0.0,0.0,100,0.00,,---,0.30,VWS V14.01,2015-07-06 06:45:00,
2015-07-06 02:46:00,72.8,72.8,30.07,NW,313,0.0,0.0,100,0.00,,---,0.30,VWS V14.01,2015-07-06 06:46:00,
2015-07-06 02:47:00,72.8,72.8,30.07,NW,313,0.0,0.0,100,0.00,,---,0.30,VWS V14.01,2015-07-06 06:47:00,
2015-07-06 02:48:00,72.8,72.8,30.07,NW,313,0.0,0.0,100,0.00,,---,0.30,VWS V14.01,2015-07-06 06:48:00,
2015-07-06 02:49:00,72.8,72.8,30.07,NW,313,0.0,0.0,100,0.00,,---,0.30,VWS V14.01,2015-07-06 06:49:00,
2015-07-06 02:50:00,72.8,72.8,30.07,NW,313,0.0,0.0,100,0.00,,---,0.30,VWS V14.01,2015-07-06 06:50:00,
2015-07-06 02:51:00,72.8,72.8,30.07,NW,313,0.0,0.0,100,0.00,,---,0.30,VWS V14.01,2015-07-06 06:51:00,
2015-07-06 02:52:00,72.8,72.8,30.07,NW,313,0.0,0.0,100,0.00,,---,0.30,VWS V14.01,2015-07-06 06:52:00,
2015-07-06 02:53:00,72.8,72.8,30.07,NW,313,0.0,0.0,100,0.00,,---,0.30,VWS V14.01,2015-07-06 06:53:00,
2015-07-06 02:54:00,72.8,72.8,30.07,NW,313,0.0,0.0,100,0.00,,---,0.30,VWS V14.01,2015-07-06 06:54:00,
2015-07-06 02:55:00,72.8,72.8,30.07,NW,313,0.0,0.0,100,0.00,,---,0.30,VWS V14.01,2015-07-06 06:55:00,
2015-07-06 02:56:00,72.8,72.8,30.07,NW,313,0.0,0.0,100,0.00,,---,0.30,VWS V14.01,2015-07-06 06:56:00,
2015-07-06 02:57:00,72.8,72.8,30.07,NW,313,0.0,0.0,100,0.00,,---,0.30,VWS V14.01,2015-07-06 06:57:00,
2015-07-06 02:58:00,72.8,72.8,30.07,NW,313,0.0,0.0,100,0.00,,---,0.30,VWS V14.01,2015-07-06 06:58:00,
2015-07-06 02:59:00,72.8,72.8,30.07,NW,313,0.0,0.0,100,0.00,,---,0.30,VWS V14.01,2015-07-06 06:59:00,
2015-07-06 03:00:00,72.8,72.8,30.07,NW,313,0.0,0.0,100,0.00,,---,0.30,VWS V14.01,2015-07-06 07:00:00,
2015-07-06 03:01:00,72.7,72.7,30.07,NW,313,0.0,0.0,100,0.00,,---,0.30,VWS V14.01,2015-07-06 07:01:00,
2015-07-06 03:02:00,72.7,72.7,30.07,NW,313,0.0,0.0,100,0.00,,---,0.30,VWS V14.01,2015-07-06 07:02:00,
2015-07-06 03:03:00,72.7,72.7,30.07,NW,313,0.0,0.0,100,0.00,,---,0.30,VWS V14.01,2015-07-06 07:03:00,
2015-07-06 03:04:00,72.7,72.7,30.07,NW,313,0.0,0.0,100,0.00,,---,0.30,VWS V14.01,2015-07-06 07:04:00,
2015-07-06 03:05:00,72.7,72.7,30.07,NW,313,0.0,0.0,100,0.00,,---,0.30,VWS V14.01,2015-07-06 07:05:00,
2015-07-06 03:06:00,72.7,72.7,30.07,NW,313,0.0,0.0,100,0.00,,---,0.30,VWS V14.01,2015-07-06 07:06:00,
2015-07-06 03:07:00,72.7,72.7,30.07,NW,313,0.0,0.0,100,0.00,,---,0.30,VWS V14.01,2015-07-06 07:07:00,
2015-07-06 03:08:00,72.7,72.7,30.07,NW,313,0.0,0.0,100,0.00,,---,0.30,VWS V14.01,2015-07-06 07:08:00,
2015-07-06 03:09:00,72.7,72.7,30.07,NW,313,0.0,0.0,100,0.00,,---,0.30,VWS V14.01,2015-07-06 07:09:00,
2015-07-06 03:10:00,72.7,72.7,30.07,NW,313,0.0,0.0,100,0.00,,---,0.30,VWS V14.01,2015-07-06 07:10:00,
2015-07-06 03:11:00,72.7,72.7,30.07,NW,313,0.0,0.0,100,0.00,,---,0.30,VWS V14.01,2015-07-06 07:11:00,
2015-07-06 03:12:00,72.7,72.7,30.07,NW,313,0.0,0.0,100,0.00,,---,0.30,VWS V14.01,2015-07-06 07:12:00,
2015-07-06 03:13:00,72.7,72.7,30.07,NW,313,0.0,0.0,100,0.00,,---,0.30,VWS V14.01,2015-07-06 07:13:00,
2015-07-06 03:14:00,72.7,72.7,30.07,NW,313,0.0,0.0,100,0.00,,---,0.30,VWS V14.01,2015-07-06 07:14:00,
2015-07-06 03:15:00,72.7,72.7,30.05,NW,313,0.0,0.0,100,0.00,,---,0.30,VWS V14.01,2015-07-06 07:15:00,
2015-07-06 03:16:00,72.7,72.7,30.05,NW,313,0.0,0.0,100,0.00,,---,0.30,VWS V14.01,2015-07-06 07:16:00,
2015-07-06 03:17:00,72.7,72.7,30.05,NW,313,0.0,0.0,100,0.00,,---,0.30,VWS V14.01,2015-07-06 07:17:00,
2015-07-06 03:18:00,72.7,72.7,30.05,NW,313,0.0,0.0,100,0.00,,---,0.30,VWS V14.01,2015-07-06 07:18:00,
2015-07-06 03:19:00,72.7,72.7,30.05,NW,313,0.0,0.0,100,0.00,,---,0.30,VWS V14.01,2015-07-06 07:19:00,
2015-07-06 03:20:00,72.7,72.7,30.05,NW,313,0.0,0.0,100,0.00,,---,0.30,VWS V14.01,2015-07-06 07:20:00,
2015-07-06 03:21:00,72.7,72.7,30.05,NW,313,0.0,0.0,100,0.00,,---,0.30,VWS V14.01,2015-07-06 07:21:00,
2015-07-06 03:22:00,72.7,72.7,30.05,NW,313,0.0,0.0,100,0.00,,---,0.30,VWS V14.01,2015-07-06 07:22:00,
2015-07-06 03:23:00,72.7,72.7,30.05,NW,313,0.0,0.0,100,0.00,,---,0.30,VWS V14.01,2015-07-06 07:23:00,
2015-07-06 03:24:00,72.7,72.7,30.05,NW,313,0.0,0.0,100,0.00,,---,0.30,VWS V14.01,2015-07-06 07:24:00,
2015-07-06 03:25:00,72.7,72.7,30.05,NW,313,0.0,0.0,100,0.00,,---,0.30,VWS V14.01,2015-07-06 07:25:00,
2015-07-06 03:26:00,72.8,72.8,30.05,NW,313,0.0,0.0,100,0.00,,---,0.30,VWS V14.01,2015-07-06 07:26:00,
2015-07-06 03:27:00,72.8,72.8,30.05,NW,313,0.0,0.0,100,0.00,,---,0.30,VWS V14.01,2015-07-06 07:27:00,
2015-07-06 03:28:00,72.8,72.8,30.05,NW,313,0.0,0.0,100,0.00,,---,0.30,VWS V14.01,2015-07-06 07:28:00,
2015-07-06 03:29:00,72.8,72.8,30.05,NW,313,0.0,0.0,100,0.00,,---,0.30,VWS V14.01,2015-07-06 07:29:00,
2015-07-06 03:30:00,72.8,72.8,30.05,NW,313,0.0,0.0,100,0.00,,---,0.30,VWS V14.01,2015-07-06 07:30:00,
2015-07-06 03:31:00,72.8,72.8,30.05,NW,313,0.0,0.0,100,0.00,,---,0.30,VWS V14.01,2015-07-06 07:31:00,
2015-07-06 03:32:00,72.8,72.8,30.05,NW,313,0.0,0.0,100,0.00,,---,0.30,VWS V14.01,2015-07-06 07:32:00,
2015-07-06 03:33:00,72.8,72.8,30.05,NW,313,0.0,0.0,100,0.00,,---,0.30,VWS V14.01,2015-07-06 07:33:00,
2015-07-06 03:34:00,72.8,72.8,30.05,NW,313,0.0,0.0,100,0.00,,---,0.30,VWS V14.01,2015-07-06 07:34:00,
2015-07-06 03:35:00,72.8,72.8,30.05,NW,313,0.0,0.0,100,0.00,,---,0.30,VWS V14.01,2015-07-06 07:35:00,
2015-07-06 03:36:00,72.8,72.8,30.05,NW,313,0.0,0.0,100,0.00,,---,0.30,VWS V14.01,2015-07-06 07:36:00,
2015-07-06 03:37:00,72.8,72.8,30.05,NW,313,0.0,0.0,100,0.00,,---,0.30,VWS V14.01,2015-07-06 07:37:00,
2015-07-06 03:38:00,72.8,72.8,30.05,NW,313,0.0,0.0,100,0.00,,---,0.30,VWS V14.01,2015-07-06 07:38:00,
2015-07-06 03:39:00,72.8,72.8,30.05,NW,313,0.0,0.0,100,0.00,,---,0.30,VWS V14.01,2015-07-06 07:39:00,
2015-07-06 03:40:00,72.8,72.8,30.05,NW,313,0.0,0.0,100,0.00,,---,0.30,VWS V14.01,2015-07-06 07:40:00,
2015-07-06 03:41:00,72.8,72.8,30.05,NW,313,0.0,0.0,100,0.00,,---,0.30,VWS V14.01,2015-07-06 07:41:00,
2015-07-06 03:42:00,72.8,72.8,30.05,NW,313,0.0,0.0,100,0.00,,---,0.30,VWS V14.01,2015-07-06 07:42:00,
2015-07-06 03:43:00,73.0,73.0,30.05,NW,313,0.0,0.0,100,0.00,,---,0.30,VWS V14.01,2015-07-06 07:43:00,
2015-07-06 03:44:00,73.0,73.0,30.05,NW,313,0.0,0.0,100,0.00,,---,0.30,VWS V14.01,2015-07-06 07:44:00,
2015-07-06 03:45:00,73.0,73.0,30.05,NW,313,0.0,0.0,100,0.00,,---,0.30,VWS V14.01,2015-07-06 07:45:00,
2015-07-06 03:46:00,73.0,73.0,30.05,NW,313,0.0,0.0,100,0.00,,---,0.30,VWS V14.01,2015-07-06 07:46:00,
2015-07-06 03:47:00,73.0,73.0,30.05,NW,313,0.0,0.0,100,0.00,,---,0.30,VWS V14.01,2015-07-06 07:47:00,
2015-07-06 03:48:00,73.0,73.0,30.05,NW,313,0.0,0.0,100,0.00,,---,0.30,VWS V14.01,2015-07-06 07:48:00,
2015-07-06 03:49:00,73.0,73.0,30.05,NW,313,0.0,0.0,100,0.00,,---,0.30,VWS V14.01,2015-07-06 07:49:00,
2015-07-06 03:50:00,73.0,73.0,30.05,NW,313,0.0,0.0,100,0.00,,---,0.30,VWS V14.01,2015-07-06 07:50:00,
2015-07-06 03:51:00,73.0,73.0,30.05,NW,313,0.0,0.0,100,0.00,,---,0.30,VWS V14.01,2015-07-06 07:51:00,
2015-07-06 03:52:00,73.0,73.0,30.05,NW,313,0.0,0.0,100,0.00,,---,0.30,VWS V14.01,2015-07-06 07:52:00,
2015-07-06 03:53:00,73.0,73.0,30.05,NW,313,0.0,0.0,100,0.00,,---,0.30,VWS V14.01,2015-07-06 07:53:00,
2015-07-06 03:54:00,73.0,73.0,30.05,NW,313,1.0,1.0,100,0.00,,---,0.30,VWS V14.01,2015-07-06 07:54:00,
2015-07-06 03:55:00,73.2,73.2,30.05,NW,313,0.0,1.0,100,0.00,,---,0.30,VWS V14.01,2015-07-06 07:55:00,
2015-07-06 03:56:00,73.2,73.2,30.05,NW,313,0.0,1.0,100,0.00,,---,0.30,VWS V14.01,2015-07-06 07:56:00,
2015-07-06 03:57:00,73.2,73.2,30.05,NW,313,0.0,1.0,100,0.00,,---,0.30,VWS V14.01,2015-07-06 07:57:00,
2015-07-06 03:58:00,73.2,73.2,30.05,NW,313,0.0,1.0,100,0.00,,---,0.30,VWS V14.01,2015-07-06 07:58:00,
2015-07-06 03:59:00,73.2,73.2,30.05,NW,313,0.0,1.0,100,0.00,,---,0.30,VWS V14.01,2015-07-06 07:59:00,
2015-07-06 04:00:00,73.2,73.2,30.05,NW,313,0.0,1.0,100,0.00,,---,0.30,VWS V14.01,2015-07-06 08:00:00,
2015-07-06 04:01:00,73.2,73.2,30.05,NW,313,0.0,0.0,100,0.00,,---,0.30,VWS V14.01,2015-07-06 08:01:00,
2015-07-06 04:02:00,73.2,73.2,30.05,NW,313,0.0,0.0,100,0.00,,---,0.30,VWS V14.01,2015-07-06 08:02:00,
2015-07-06 04:03:00,73.2,73.2,30.05,NW,313,0.0,0.0,100,0.00,,---,0.30,VWS V14.01,2015-07-06 08:03:00,
2015-07-06 04:04:00,73.3,73.3,30.05,NW,313,0.0,0.0,100,0.00,,---,0.30,VWS V14.01,2015-07-06 08:04:00,
2015-07-06 04:05:00,73.3,73.3,30.05,NW,313,0.0,0.0,100,0.00,,---,0.30,VWS V14.01,2015-07-06 08:05:00,
2015-07-06 04:06:00,73.3,73.3,30.05,NW,313,0.0,0.0,100,0.00,,---,0.30,VWS V14.01,2015-07-06 08:06:00,
2015-07-06 04:07:00,73.3,73.3,30.05,NW,313,0.0,0.0,100,0.00,,---,0.30,VWS V14.01,2015-07-06 08:07:00,
2015-07-06 04:08:00,73.3,73.3,30.05,NW,313,0.0,0.0,100,0.00,,---,0.30,VWS V14.01,2015-07-06 08:08:00,
2015-07-06 04:09:00,73.3,73.3,30.05,NW,313,1.0,1.0,100,0.00,,---,0.30,VWS V14.01,2015-07-06 08:09:00,
2015-07-06 04:10:00,73.3,73.3,30.05,NW,313,0.0,1.0,100,0.00,,---,0.30,VWS V14.01,2015-07-06 08:10:00,
2015-07-06 04:11:00,73.2,73.2,30.05,NW,313,0.0,1.0,100,0.00,,---,0.30,VWS V14.01,2015-07-06 08:11:00,
2015-07-06 04:12:00,73.2,73.2,30.05,NW,313,0.0,1.0,100,0.00,,---,0.30,VWS V14.01,2015-07-06 08:12:00,
2015-07-06 04:13:00,73.2,73.2,30.05,NW,313,0.0,1.0,100,0.00,,---,0.30,VWS V14.01,2015-07-06 08:13:00,
2015-07-06 04:14:00,73.2,73.2,30.05,NW,313,0.0,1.0,100,0.00,,---,0.30,VWS V14.01,2015-07-06 08:14:00,
2015-07-06 04:15:00,73.2,73.2,30.04,NW,313,1.0,1.0,100,0.00,,---,0.30,VWS V14.01,2015-07-06 08:15:00,
2015-07-06 04:16:00,73.2,73.2,30.04,NW,313,0.0,1.0,100,0.00,,---,0.30,VWS V14.01,2015-07-06 08:16:00,
2015-07-06 04:17:00,73.2,73.2,30.04,NW,313,0.0,1.0,100,0.00,,---,0.30,VWS V14.01,2015-07-06 08:17:00,
2015-07-06 04:18:00,73.2,73.2,30.04,NW,313,0.0,1.0,100,0.00,,---,0.30,VWS V14.01,2015-07-06 08:18:00,
2015-07-06 04:19:00,73.2,73.2,30.04,NW,313,1.0,1.0,100,0.00,,---,0.30,VWS V14.01,2015-07-06 08:19:00,
2015-07-06 04:20:00,73.2,73.2,30.04,NW,313,0.0,1.0,100,0.00,,---,0.30,VWS V14.01,2015-07-06 08:20:00,
2015-07-06 04:21:00,73.2,73.2,30.04,NW,313,0.0,1.0,100,0.00,,---,0.30,VWS V14.01,2015-07-06 08:21:00,
2015-07-06 04:22:00,73.2,73.2,30.04,NW,313,0.0,1.0,100,0.00,,---,0.30,VWS V14.01,2015-07-06 08:22:00,
2015-07-06 04:23:00,73.2,73.2,30.04,NW,313,1.0,1.0,100,0.00,,---,0.30,VWS V14.01,2015-07-06 08:23:00,
2015-07-06 04:24:00,73.2,73.2,30.04,NW,313,1.0,1.0,100,0.00,,---,0.30,VWS V14.01,2015-07-06 08:24:00,
2015-07-06 04:25:00,73.2,73.2,30.04,NW,313,1.0,1.0,100,0.00,,---,0.30,VWS V14.01,2015-07-06 08:25:00,
2015-07-06 04:26:00,73.2,73.2,30.04,NW,313,0.0,1.0,100,0.00,,---,0.30,VWS V14.01,2015-07-06 08:26:00,
2015-07-06 04:27:00,73.2,73.2,30.04,NW,313,0.0,1.0,100,0.00,,---,0.30,VWS V14.01,2015-07-06 08:27:00,
2015-07-06 04:28:00,73.2,73.2,30.04,NW,313,1.0,1.0,100,0.00,,---,0.30,VWS V14.01,2015-07-06 08:28:00,
2015-07-06 04:29:00,73.2,73.2,30.04,NW,313,0.0,1.0,100,0.00,,---,0.30,VWS V14.01,2015-07-06 08:29:00,
2015-07-06 04:30:00,73.2,73.2,30.03,NW,313,0.0,1.0,100,0.00,,---,0.30,VWS V14.01,2015-07-06 08:30:00,
2015-07-06 04:31:00,73.2,73.2,30.03,NW,313,0.0,0.0,100,0.00,,---,0.30,VWS V14.01,2015-07-06 08:31:00,
2015-07-06 04:32:00,73.2,73.2,30.03,NW,313,0.0,0.0,100,0.00,,---,0.30,VWS V14.01,2015-07-06 08:32:00,
2015-07-06 04:33:00,73.0,73.0,30.03,NW,313,0.0,0.0,100,0.00,,---,0.30,VWS V14.01,2015-07-06 08:33:00,
2015-07-06 04:34:00,73.0,73.0,30.03,NW,313,0.0,0.0,100,0.00,,---,0.30,VWS V14.01,2015-07-06 08:34:00,
2015-07-06 04:35:00,73.0,73.0,30.03,NW,313,0.0,0.0,100,0.00,,---,0.30,VWS V14.01,2015-07-06 08:35:00,
2015-07-06 04:36:00,73.0,73.0,30.03,NW,313,0.0,0.0,100,0.00,,---,0.30,VWS V14.01,2015-07-06 08:36:00,
2015-07-06 04:37:00,73.0,73.0,30.03,NW,313,0.0,0.0,100,0.00,,---,0.30,VWS V14.01,2015-07-06 08:37:00,
2015-07-06 04:38:00,73.0,73.0,30.03,NW,313,0.0,0.0,100,0.00,,---,0.30,VWS V14.01,2015-07-06 08:38:00,
2015-07-06 04:39:00,73.0,73.0,30.03,NW,313,0.0,0.0,100,0.00,,---,0.30,VWS V14.01,2015-07-06 08:39:00,
2015-07-06 04:40:00,73.0,73.0,30.03,NW,313,1.0,1.0,100,0.00,,---,0.30,VWS V14.01,2015-07-06 08:40:00,
2015-07-06 04:41:00,73.0,73.0,30.03,NW,313,0.0,1.0,100,0.00,,---,0.30,VWS V14.01,2015-07-06 08:41:00,
2015-07-06 04:42:00,73.0,73.0,30.03,NW,313,0.0,1.0,100,0.00,,---,0.30,VWS V14.01,2015-07-06 08:42:00,
2015-07-06 04:43:00,73.0,73.0,30.03,NW,313,2.0,2.0,100,0.00,,---,0.30,VWS V14.01,2015-07-06 08:43:00,
2015-07-06 04:44:00,73.0,73.0,30.03,NW,313,0.0,2.0,100,0.00,,---,0.30,VWS V14.01,2015-07-06 08:44:00,
2015-07-06 04:45:00,73.0,73.0,30.03,NW,313,0.0,2.0,100,0.00,,---,0.30,VWS V14.01,2015-07-06 08:45:00,
2015-07-06 04:46:00,73.0,73.0,30.03,NW,313,0.0,2.0,100,0.00,,---,0.30,VWS V14.01,2015-07-06 08:46:00,
2015-07-06 04:47:00,73.0,73.0,30.03,NW,313,1.0,2.0,100,0.00,,---,0.30,VWS V14.01,2015-07-06 08:47:00,
2015-07-06 04:48:00,73.0,73.0,30.03,NW,313,0.0,2.0,100,0.00,,---,0.30,VWS V14.01,2015-07-06 08:48:00,
2015-07-06 04:49:00,73.0,73.0,30.03,NW,313,0.0,2.0,100,0.00,,---,0.30,VWS V14.01,2015-07-06 08:49:00,
2015-07-06 04:50:00,73.0,73.0,30.03,NW,313,2.0,2.0,100,0.00,,---,0.30,VWS V14.01,2015-07-06 08:50:00,
2015-07-06 04:51:00,73.0,73.0,30.03,NW,313,0.0,2.0,100,0.00,,---,0.30,VWS V14.01,2015-07-06 08:51:00,
2015-07-06 04:52:00,73.0,73.0,30.03,NW,313,0.0,2.0,100,0.00,,---,0.30,VWS V14.01,2015-07-06 08:52:00,
2015-07-06 04:53:00,73.0,73.0,30.03,NW,313,0.0,2.0,100,0.00,,---,0.30,VWS V14.01,2015-07-06 08:53:00,
2015-07-06 04:54:00,73.0,73.0,30.03,NW,313,0.0,2.0,100,0.00,,---,0.30,VWS V14.01,2015-07-06 08:54:00,
2015-07-06 04:55:00,73.0,73.0,30.03,NW,313,0.0,2.0,100,0.00,,---,0.30,VWS V14.01,2015-07-06 08:55:00,
2015-07-06 04:56:00,73.0,73.0,30.03,NW,313,0.0,2.0,100,0.00,,---,0.30,VWS V14.01,2015-07-06 08:56:00,
2015-07-06 04:57:00,73.0,73.0,30.03,NW,313,0.0,2.0,100,0.00,,---,0.30,VWS V14.01,2015-07-06 08:57:00,
2015-07-06 04:58:00,73.0,73.0,30.03,NW,313,0.0,2.0,100,0.00,,---,0.30,VWS V14.01,2015-07-06 08:58:00,
2015-07-06 04:59:00,73.0,73.0,30.03,NW,313,0.0,2.0,100,0.00,,---,0.30,VWS V14.01,2015-07-06 08:59:00,
2015-07-06 05:00:00,73.0,73.0,30.03,NW,313,0.0,2.0,100,0.00,,---,0.30,VWS V14.01,2015-07-06 09:00:00,
2015-07-06 05:01:00,73.0,73.0,30.03,NW,313,0.0,0.0,100,0.00,,---,0.30,VWS V14.01,2015-07-06 09:01:00,
2015-07-06 05:02:00,73.0,73.0,30.03,NW,313,1.0,1.0,100,0.00,,---,0.30,VWS V14.01,2015-07-06 09:02:00,
2015-07-06 05:03:00,73.0,73.0,30.03,NW,313,1.0,1.0,100,0.00,,---,0.30,VWS V14.01,2015-07-06 09:03:00,
2015-07-06 05:04:00,73.0,73.0,30.03,NW,313,0.0,1.0,100,0.00,,---,0.30,VWS V14.01,2015-07-06 09:04:00,
2015-07-06 05:05:00,73.0,73.0,30.03,NW,313,1.0,1.0,100,0.00,,---,0.30,VWS V14.01,2015-07-06 09:05:00,
2015-07-06 05:06:00,73.0,73.0,30.03,NW,313,2.0,2.0,100,0.00,,---,0.30,VWS V14.01,2015-07-06 09:06:00,
2015-07-06 05:07:00,73.0,73.0,30.03,NW,313,1.0,2.0,100,0.00,,---,0.30,VWS V14.01,2015-07-06 09:07:00,
2015-07-06 05:08:00,73.0,73.0,30.03,NW,306,0.0,2.0,100,0.00,,---,0.30,VWS V14.01,2015-07-06 09:08:00,
2015-07-06 05:09:00,73.0,73.0,30.03,NW,306,2.0,2.0,100,0.00,,---,0.30,VWS V14.01,2015-07-06 09:09:00,
2015-07-06 05:10:00,73.0,73.0,30.03,WNW,303,2.0,2.0,100,0.00,,---,0.30,VWS V14.01,2015-07-06 09:10:00,
2015-07-06 05:11:00,73.0,73.0,30.03,WNW,303,0.0,2.0,100,0.00,,---,0.30,VWS V14.01,2015-07-06 09:11:00,
2015-07-06 05:12:00,73.0,73.0,30.03,NW,304,0.0,2.0,100,0.00,,---,0.30,VWS V14.01,2015-07-06 09:12:00,
2015-07-06 05:13:00,73.0,73.0,30.03,NW,304,1.0,2.0,100,0.00,,---,0.30,VWS V14.01,2015-07-06 09:13:00,
2015-07-06 05:14:00,73.0,73.0,30.03,NW,304,1.0,2.0,100,0.00,,---,0.30,VWS V14.01,2015-07-06 09:14:00,
2015-07-06 05:15:00,73.0,73.0,30.02,NW,304,3.0,3.0,100,0.00,,---,0.30,VWS V14.01,2015-07-06 09:15:00,
2015-07-06 05:16:00,73.0,73.0,30.02,NW,304,0.0,3.0,100,0.00,,---,0.30,VWS V14.01,2015-07-06 09:16:00,
2015-07-06 05:17:00,73.0,73.0,30.02,NW,304,0.0,3.0,100,0.00,,---,0.30,VWS V14.01,2015-07-06 09:17:00,
2015-07-06 05:18:00,73.0,73.0,30.02,NW,304,0.0,3.0,100,0.00,,---,0.30,VWS V14.01,2015-07-06 09:18:00,
2015-07-06 05:19:00,73.0,73.0,30.02,NW,304,1.0,3.0,100,0.00,,---,0.30,VWS V14.01,2015-07-06 09:19:00,
2015-07-06 05:20:00,73.0,73.0,30.02,NW,304,1.0,3.0,100,0.00,,---,0.30,VWS V14.01,2015-07-06 09:20:00,
2015-07-06 05:21:00,73.0,73.0,30.02,NW,304,0.0,3.0,100,0.00,,---,0.30,VWS V14.01,2015-07-06 09:21:00,
2015-07-06 05:22:00,73.0,73.0,30.02,NW,304,0.0,3.0,100,0.00,,---,0.30,VWS V14.01,2015-07-06 09:22:00,
2015-07-06 05:23:00,73.0,73.0,30.02,NW,304,3.0,3.0,100,0.00,,---,0.30,VWS V14.01,2015-07-06 09:23:00,
2015-07-06 05:24:00,73.0,73.0,30.02,NW,304,1.0,3.0,100,0.00,,---,0.30,VWS V14.01,2015-07-06 09:24:00,
2015-07-06 05:25:00,73.0,73.0,30.02,NW,304,1.0,3.0,100,0.00,,---,0.30,VWS V14.01,2015-07-06 09:25:00,
2015-07-06 05:26:00,73.2,73.2,30.02,NW,304,0.0,3.0,100,0.00,,---,0.30,VWS V14.01,2015-07-06 09:26:00,
2015-07-06 05:27:00,73.2,73.2,30.02,SE,138,7.0,7.0,100,0.00,,---,0.30,VWS V14.01,2015-07-06 09:27:00,
2015-07-06 05:28:00,73.2,73.2,30.02,SE,138,1.0,7.0,100,0.00,,---,0.30,VWS V14.01,2015-07-06 09:28:00,
2015-07-06 05:29:00,73.2,73.2,30.02,SE,126,1.0,7.0,100,0.00,,---,0.30,VWS V14.01,2015-07-06 09:29:00,
2015-07-06 05:30:00,73.2,73.2,30.01,SE,129,1.0,7.0,100,0.00,,---,0.30,VWS V14.01,2015-07-06 09:30:00,
2015-07-06 05:31:00,73.2,73.2,30.01,SE,128,0.0,1.0,100,0.00,,---,0.30,VWS V14.01,2015-07-06 09:31:00,
2015-07-06 05:32:00,73.2,73.2,30.01,SE,128,0.0,1.0,100,0.00,,---,0.30,VWS V14.01,2015-07-06 09:32:00,
2015-07-06 05:33:00,73.2,73.2,30.01,SE,129,0.0,1.0,100,0.00,,---,0.30,VWS V14.01,2015-07-06 09:33:00,
2015-07-06 05:34:00,73.3,73.3,30.01,SE,128,0.0,1.0,100,0.00,,---,0.30,VWS V14.01,2015-07-06 09:34:00,
2015-07-06 05:35:00,73.3,73.3,30.01,SE,128,0.0,2.0,100,0.00,,---,0.30,VWS V14.01,2015-07-06 09:35:00,
2015-07-06 05:36:00,73.3,73.3,30.01,SE,128,0.0,2.0,100,0.00,,---,0.30,VWS V14.01,2015-07-06 09:36:00,
2015-07-06 05:37:00,73.3,73.3,30.01,SE,129,0.0,4.0,100,0.00,,---,0.30,VWS V14.01,2015-07-06 09:37:00,
2015-07-06 05:38:00,73.3,73.3,30.01,SE,129,1.0,4.0,100,0.00,,---,0.30,VWS V14.01,2015-07-06 09:38:00,
2015-07-06 05:39:00,73.5,73.5,30.01,SE,129,1.0,4.0,100,0.00,,---,0.30,VWS V14.01,2015-07-06 09:39:00,
2015-07-06 05:40:00,73.5,73.5,30.01,SE,129,2.0,4.0,100,0.00,,---,0.30,VWS V14.01,2015-07-06 09:40:00,
2015-07-06 05:41:00,73.5,73.5,30.01,SE,129,0.0,4.0,100,0.00,,---,0.30,VWS V14.01,2015-07-06 09:41:00,
2015-07-06 05:42:00,73.5,73.5,30.01,SE,129,0.0,4.0,100,0.00,,---,0.30,VWS V14.01,2015-07-06 09:42:00,
2015-07-06 05:43:00,73.5,73.5,30.01,SE,129,0.0,4.0,100,0.00,,---,0.30,VWS V14.01,2015-07-06 09:43:00,
2015-07-06 05:44:00,73.7,73.7,30.00,SE,129,2.0,4.0,100,0.00,,---,0.30,VWS V14.01,2015-07-06 09:44:00,
2015-07-06 05:45:00,73.7,73.7,30.00,SE,129,0.0,4.0,100,0.00,,---,0.30,VWS V14.01,2015-07-06 09:45:00,
2015-07-06 05:46:00,73.7,73.7,30.00,SE,129,1.0,4.0,100,0.00,,---,0.30,VWS V14.01,2015-07-06 09:46:00,
2015-07-06 05:47:00,73.9,73.9,30.00,SE,129,0.0,4.0,100,0.00,,---,0.30,VWS V14.01,2015-07-06 09:47:00,
2015-07-06 05:48:00,73.9,73.9,30.00,SE,129,2.0,4.0,100,0.00,,---,0.30,VWS V14.01,2015-07-06 09:48:00,
2015-07-06 05:49:00,73.9,73.9,30.00,SE,129,0.0,4.0,100,0.00,,---,0.30,VWS V14.01,2015-07-06 09:49:00,
2015-07-06 05:50:00,73.9,73.9,30.00,SE,129,2.0,4.0,100,0.00,,---,0.30,VWS V14.01,2015-07-06 09:50:00,
2015-07-06 05:51:00,73.9,73.9,30.00,SE,129,2.0,4.0,100,0.00,,---,0.30,VWS V14.01,2015-07-06 09:51:00,
2015-07-06 05:52:00,73.9,73.9,30.00,SE,130,3.0,4.0,100,0.00,,---,0.30,VWS V14.01,2015-07-06 09:52:00,
2015-07-06 05:53:00,74.0,74.0,30.00,SE,130,2.0,4.0,100,0.00,,---,0.30,VWS V14.01,2015-07-06 09:53:00,
2015-07-06 05:54:00,74.0,74.0,30.00,SE,130,2.0,4.0,100,0.00,,---,0.30,VWS V14.01,2015-07-06 09:54:00,
2015-07-06 05:55:00,74.0,74.0,30.00,SE,130,0.0,4.0,100,0.00,,---,0.30,VWS V14.01,2015-07-06 09:55:00,
2015-07-06 05:56:00,74.0,74.0,30.00,SE,130,2.0,4.0,100,0.00,,---,0.30,VWS V14.01,2015-07-06 09:56:00,
2015-07-06 05:57:00,74.2,74.2,30.00,SE,130,2.0,4.0,100,0.00,,---,0.30,VWS V14.01,2015-07-06 09:57:00,
2015-07-06 05:58:00,74.2,74.2,30.00,SE,131,2.0,4.0,100,0.00,,---,0.30,VWS V14.01,2015-07-06 09:58:00,
2015-07-06 05:59:00,74.2,74.2,30.00,SE,131,2.0,4.0,100,0.00,,---,0.30,VWS V14.01,2015-07-06 09:59:00,
2015-07-06 06:00:00,74.4,74.4,29.99,SE,129,3.0,4.0,100,0.00,,---,0.30,VWS V14.01,2015-07-06 10:00:00,
2015-07-06 06:01:00,74.4,74.4,29.99,SE,129,0.0,0.0,100,0.00,,---,0.30,VWS V14.01,2015-07-06 10:01:00,
2015-07-06 06:02:00,74.4,74.4,29.99,SE,129,1.0,2.0,100,0.00,,---,0.30,VWS V14.01,2015-07-06 10:02:00,
2015-07-06 06:03:00,74.4,74.4,29.99,SE,134,1.0,4.0,100,0.00,,---,0.30,VWS V14.01,2015-07-06 10:03:00,
2015-07-06 06:04:00,74.6,74.6,29.99,SE,138,2.0,5.0,100,0.00,,---,0.30,VWS V14.01,2015-07-06 10:04:00,
2015-07-06 06:05:00,74.6,74.6,29.99,SE,136,4.0,5.0,100,0.00,,---,0.30,VWS V14.01,2015-07-06 10:05:00,
2015-07-06 06:06:00,74.7,74.7,29.99,SSE,156,0.0,5.0,100,0.00,,---,0.30,VWS V14.01,2015-07-06 10:06:00,
2015-07-06 06:07:00,74.7,74.7,29.99,SSE,156,1.0,5.0,100,0.00,,---,0.30,VWS V14.01,2015-07-06 10:07:00,
2015-07-06 06:08:00,74.7,74.7,29.99,SE,136,3.0,9.0,100,0.00,,---,0.30,VWS V14.01,2015-07-06 10:08:00,
2015-07-06 06:09:00,74.9,74.9,29.99,SE,136,0.0,9.0,100,0.00,,---,0.30,VWS V14.01,2015-07-06 10:09:00,
2015-07-06 06:10:00,74.9,74.9,29.99,SE,144,3.0,9.0,100,0.00,,---,0.30,VWS V14.01,2015-07-06 10:10:00,
2015-07-06 06:11:00,74.9,74.9,29.99,SE,135,1.0,9.0,100,0.00,,---,0.30,VWS V14.01,2015-07-06 10:11:00,
2015-07-06 06:12:00,75.1,75.1,29.99,SE,140,6.0,9.0,100,0.00,,---,0.30,VWS V14.01,2015-07-06 10:12:00,
2015-07-06 06:13:00,75.1,75.1,29.99,ESE,121,1.0,9.0,100,0.00,,---,0.30,VWS V14.01,2015-07-06 10:13:00,
2015-07-06 06:14:00,75.1,75.1,29.99,ESE,119,2.0,9.0,100,0.00,,---,0.30,VWS V14.01,2015-07-06 10:14:00,
2015-07-06 06:15:00,75.1,75.1,29.99,East,101,1.0,9.0,100,0.00,,---,0.30,VWS V14.01,2015-07-06 10:15:00,
2015-07-06 06:16:00,75.3,75.3,29.99,ESE,119,1.0,9.0,100,0.00,,---,0.30,VWS V14.01,2015-07-06 10:16:00,
2015-07-06 06:17:00,75.3,75.3,29.99,SE,125,5.0,9.0,100,0.00,,---,0.30,VWS V14.01,2015-07-06 10:17:00,
2015-07-06 06:18:00,75.3,75.3,29.99,SE,125,3.0,9.0,100,0.00,,---,0.30,VWS V14.01,2015-07-06 10:18:00,
2015-07-06 06:19:00,75.4,75.4,29.99,SE,125,3.0,9.0,100,0.00,,---,0.30,VWS V14.01,2015-07-06 10:19:00,
2015-07-06 06:20:00,75.4,75.4,29.99,SE,125,0.0,9.0,100,0.00,,---,0.30,VWS V14.01,2015-07-06 10:20:00,
2015-07-06 06:21:00,75.4,75.4,29.99,ESE,119,1.0,9.0,100,0.00,,---,0.30,VWS V14.01,2015-07-06 10:21:00,
2015-07-06 06:22:00,75.4,75.4,29.99,ESE,119,1.0,9.0,100,0.00,,---,0.30,VWS V14.01,2015-07-06 10:22:00,
2015-07-06 06:23:00,75.6,75.6,29.99,ESE,119,2.0,9.0,100,0.00,,---,0.30,VWS V14.01,2015-07-06 10:23:00,
2015-07-06 06:24:00,75.6,75.6,29.99,ESE,120,3.0,9.0,100,0.00,,---,0.30,VWS V14.01,2015-07-06 10:24:00,
2015-07-06 06:25:00,75.6,75.6,29.99,ESE,121,3.0,9.0,100,0.00,,---,0.30,VWS V14.01,2015-07-06 10:25:00,
2015-07-06 06:26:00,75.6,75.6,29.99,ESE,121,4.0,9.0,100,0.00,,---,0.30,VWS V14.01,2015-07-06 10:26:00,
2015-07-06 06:27:00,75.8,75.8,29.99,ESE,121,2.0,9.0,100,0.00,,---,0.30,VWS V14.01,2015-07-06 10:27:00,
2015-07-06 06:28:00,75.8,75.8,29.99,ESE,121,3.0,9.0,100,0.00,,---,0.30,VWS V14.01,2015-07-06 10:28:00,
2015-07-06 06:29:00,75.8,75.8,30.00,ESE,121,0.0,9.0,100,0.00,,---,0.30,VWS V14.01,2015-07-06 10:29:00,
2015-07-06 06:30:00,75.8,75.8,30.00,ESE,121,3.0,9.0,100,0.00,,---,0.30,VWS V14.01,2015-07-06 10:30:00,
2015-07-06 06:31:00,75.8,75.8,30.00,ESE,121,0.0,3.0,100,0.00,,---,0.30,VWS V14.01,2015-07-06 10:31:00,
2015-07-06 06:32:00,76.0,76.0,30.00,ESE,118,1.0,9.0,100,0.00,,---,0.30,VWS V14.01,2015-07-06 10:32:00,
2015-07-06 06:33:00,76.0,76.0,30.00,East,86,3.0,9.0,100,0.00,,---,0.30,VWS V14.01,2015-07-06 10:33:00,
2015-07-06 06:34:00,76.0,76.0,30.00,East,86,2.0,9.0,100,0.00,,---,0.30,VWS V14.01,2015-07-06 10:34:00,
2015-07-06 06:35:00,76.1,76.1,30.00,East,86,5.0,9.0,100,0.00,,---,0.30,VWS V14.01,2015-07-06 10:35:00,
2015-07-06 06:36:00,76.1,76.1,30.00,East,86,0.0,9.0,100,0.00,,---,0.30,VWS V14.01,2015-07-06 10:36:00,
2015-07-06 06:37:00,76.1,76.1,30.00,East,86,1.0,9.0,100,0.00,,---,0.30,VWS V14.01,2015-07-06 10:37:00,
2015-07-06 06:38:00,76.3,76.3,30.00,East,86,0.0,9.0,100,0.00,,---,0.30,VWS V14.01,2015-07-06 10:38:00,
2015-07-06 06:39:00,76.3,76.3,30.00,East,86,2.0,9.0,100,0.00,,---,0.30,VWS V14.01,2015-07-06 10:39:00,
2015-07-06 06:40:00,76.3,76.3,30.00,East,86,0.0,9.0,100,0.00,,---,0.30,VWS V14.01,2015-07-06 10:40:00,
2015-07-06 06:41:00,76.5,76.5,30.00,East,84,3.0,9.0,100,0.00,,---,0.30,VWS V14.01,2015-07-06 10:41:00,
2015-07-06 06:42:00,76.5,76.5,30.00,East,84,4.0,9.0,100,0.00,,---,0.30,VWS V14.01,2015-07-06 10:42:00,
2015-07-06 06:43:00,76.5,76.5,30.00,East,84,1.0,9.0,100,0.00,,---,0.30,VWS V14.01,2015-07-06 10:43:00,
2015-07-06 06:44:00,76.7,76.7,30.00,East,84,2.0,9.0,100,0.00,,---,0.30,VWS V14.01,2015-07-06 10:44:00,
2015-07-06 06:45:00,76.7,76.7,30.03,East,84,2.0,9.0,100,0.00,,---,0.30,VWS V14.01,2015-07-06 10:45:00,
2015-07-06 06:46:00,76.7,76.7,30.03,East,84,3.0,9.0,100,0.00,,---,0.30,VWS V14.01,2015-07-06 10:46:00,
2015-07-06 06:47:00,76.7,76.7,30.03,East,84,2.0,9.0,100,0.00,,---,0.30,VWS V14.01,2015-07-06 10:47:00,
2015-07-06 06:48:00,76.7,76.7,30.03,East,84,2.0,9.0,100,0.00,,---,0.30,VWS V14.01,2015-07-06 10:48:00,
2015-07-06 06:49:00,76.8,76.8,30.03,East,84,2.0,9.0,100,0.00,,---,0.30,VWS V14.01,2015-07-06 10:49:00,
2015-07-06 06:50:00,76.8,76.8,30.03,East,84,0.0,9.0,100,0.00,,---,0.30,VWS V14.01,2015-07-06 10:50:00,
2015-07-06 06:51:00,76.8,76.8,30.03,East,84,1.0,9.0,100,0.00,,---,0.30,VWS V14.01,2015-07-06 10:51:00,
2015-07-06 06:52:00,76.8,76.8,30.03,East,84,0.0,9.0,100,0.00,,---,0.30,VWS V14.01,2015-07-06 10:52:00,
2015-07-06 06:53:00,76.8,76.8,30.03,East,84,0.0,9.0,100,0.00,,---,0.30,VWS V14.01,2015-07-06 10:53:00,
2015-07-06 06:54:00,76.8,76.8,30.03,East,84,0.0,9.0,100,0.00,,---,0.30,VWS V14.01,2015-07-06 10:54:00,
2015-07-06 06:55:00,76.8,76.8,30.03,East,84,1.0,9.0,100,0.00,,---,0.30,VWS V14.01,2015-07-06 10:55:00,
2015-07-06 06:56:00,77.0,77.0,30.03,East,84,0.0,9.0,100,0.00,,---,0.30,VWS V14.01,2015-07-06 10:56:00,
2015-07-06 06:57:00,77.0,77.0,30.03,East,84,0.0,9.0,100,0.00,,---,0.30,VWS V14.01,2015-07-06 10:57:00,
2015-07-06 06:58:00,77.0,77.0,30.03,East,84,0.0,9.0,100,0.00,,---,0.30,VWS V14.01,2015-07-06 10:58:00,
2015-07-06 06:59:00,77.0,77.0,30.03,East,84,0.0,9.0,100,0.00,,---,0.30,VWS V14.01,2015-07-06 10:59:00,
2015-07-06 07:00:00,77.0,77.0,30.04,East,84,0.0,9.0,100,0.00,,---,0.30,VWS V14.01,2015-07-06 11:00:00,
2015-07-06 07:01:00,77.0,77.0,30.04,East,84,0.0,0.0,100,0.00,,---,0.30,VWS V14.01,2015-07-06 11:01:00,
2015-07-06 07:02:00,77.0,77.0,30.04,East,84,0.0,0.0,100,0.00,,---,0.30,VWS V14.01,2015-07-06 11:02:00,
2015-07-06 07:03:00,77.0,77.0,30.04,East,84,0.0,0.0,100,0.00,,---,0.30,VWS V14.01,2015-07-06 11:03:00,
2015-07-06 07:04:00,77.0,77.0,30.04,East,84,0.0,0.0,100,0.00,,---,0.30,VWS V14.01,2015-07-06 11:04:00,
2015-07-06 07:05:00,77.0,76.7,30.04,East,84,0.0,0.0,99,0.00,,---,0.30,VWS V14.01,2015-07-06 11:05:00,
2015-07-06 07:06:00,77.2,76.9,30.04,East,84,0.0,0.0,99,0.00,,---,0.30,VWS V14.01,2015-07-06 11:06:00,
2015-07-06 07:07:00,77.2,76.9,30.04,East,84,0.0,0.0,99,0.00,,---,0.30,VWS V14.01,2015-07-06 11:07:00,
2015-07-06 07:08:00,77.2,76.9,30.04,East,84,0.0,0.0,99,0.00,,---,0.30,VWS V14.01,2015-07-06 11:08:00,
2015-07-06 07:09:00,77.2,76.9,30.04,East,84,0.0,0.0,99,0.00,,---,0.30,VWS V14.01,2015-07-06 11:09:00,
2015-07-06 07:10:00,77.2,76.9,30.04,East,84,1.0,1.0,99,0.00,,---,0.30,VWS V14.01,2015-07-06 11:10:00,
2015-07-06 07:11:00,77.2,76.9,30.04,East,84,0.0,1.0,99,0.00,,---,0.30,VWS V14.01,2015-07-06 11:11:00,
2015-07-06 07:12:00,77.2,76.9,30.04,East,84,0.0,1.0,99,0.00,,---,0.30,VWS V14.01,2015-07-06 11:12:00,
2015-07-06 07:13:00,77.2,76.9,30.04,East,84,0.0,1.0,99,0.00,,---,0.30,VWS V14.01,2015-07-06 11:13:00,
2015-07-06 07:14:00,77.4,77.1,30.04,East,84,0.0,1.0,99,0.00,,---,0.30,VWS V14.01,2015-07-06 11:14:00,
2015-07-06 07:15:00,77.4,77.1,30.05,East,84,0.0,1.0,99,0.00,,---,0.30,VWS V14.01,2015-07-06 11:15:00,
2015-07-06 07:16:00,77.4,77.1,30.05,East,84,0.0,1.0,99,0.00,,---,0.30,VWS V14.01,2015-07-06 11:16:00,
2015-07-06 07:17:00,77.4,77.1,30.05,East,84,0.0,1.0,99,0.00,,---,0.30,VWS V14.01,2015-07-06 11:17:00,
2015-07-06 07:18:00,77.4,77.1,30.05,East,84,0.0,1.0,99,0.00,,---,0.30,VWS V14.01,2015-07-06 11:18:00,
2015-07-06 07:19:00,77.4,77.1,30.05,East,84,0.0,1.0,99,0.00,,---,0.30,VWS V14.01,2015-07-06 11:19:00,
2015-07-06 07:20:00,77.6,77.3,30.05,East,84,0.0,1.0,99,0.00,,---,0.30,VWS V14.01,2015-07-06 11:20:00,
2015-07-06 07:21:00,77.6,77.3,30.05,East,84,0.0,1.0,99,0.00,,---,0.30,VWS V14.01,2015-07-06 11:21:00,
2015-07-06 07:22:00,77.6,77.3,30.05,East,84,0.0,1.0,99,0.00,,---,0.30,VWS V14.01,2015-07-06 11:22:00,
2015-07-06 07:23:00,77.6,77.3,30.05,East,84,0.0,1.0,99,0.00,,---,0.30,VWS V14.01,2015-07-06 11:23:00,
2015-07-06 07:24:00,77.7,77.4,30.05,East,84,0.0,1.0,99,0.00,,---,0.30,VWS V14.01,2015-07-06 11:24:00,
2015-07-06 07:25:00,77.7,77.4,30.05,East,84,0.0,1.0,99,0.00,,---,0.30,VWS V14.01,2015-07-06 11:25:00,
2015-07-06 07:26:00,77.7,77.1,30.05,East,84,0.0,1.0,98,0.00,,---,0.30,VWS V14.01,2015-07-06 11:26:00,
2015-07-06 07:27:00,77.7,77.1,30.05,East,84,0.0,1.0,98,0.00,,---,0.30,VWS V14.01,2015-07-06 11:27:00,
2015-07-06 07:28:00,77.7,77.1,30.05,East,84,0.0,1.0,98,0.00,,---,0.30,VWS V14.01,2015-07-06 11:28:00,
2015-07-06 07:29:00,77.7,77.1,30.05,East,84,0.0,1.0,98,0.00,,---,0.30,VWS V14.01,2015-07-06 11:29:00,
2015-07-06 07:30:00,77.9,77.3,30.05,East,84,0.0,1.0,98,0.00,,---,0.30,VWS V14.01,2015-07-06 11:30:00,
2015-07-06 07:31:00,77.9,77.3,30.05,East,84,1.0,1.0,98,0.00,,---,0.30,VWS V14.01,2015-07-06 11:31:00,
2015-07-06 07:32:00,77.9,77.3,30.05,East,84,1.0,2.0,98,0.00,,---,0.30,VWS V14.01,2015-07-06 11:32:00,
2015-07-06 07:33:00,77.9,77.3,30.05,East,84,0.0,2.0,98,0.00,,---,0.30,VWS V14.01,2015-07-06 11:33:00,
2015-07-06 07:34:00,77.9,77.3,30.05,East,84,0.0,2.0,98,0.00,,---,0.30,VWS V14.01,2015-07-06 11:34:00,
2015-07-06 07:35:00,77.9,77.3,30.05,East,84,0.0,2.0,98,0.00,,---,0.30,VWS V14.01,2015-07-06 11:35:00,
2015-07-06 07:36:00,77.9,77.3,30.05,East,84,0.0,2.0,98,0.00,,---,0.30,VWS V14.01,2015-07-06 11:36:00,
2015-07-06 07:37:00,78.1,77.5,30.05,East,84,0.0,2.0,98,0.00,,---,0.30,VWS V14.01,2015-07-06 11:37:00,
2015-07-06 07:38:00,78.1,77.5,30.05,East,84,0.0,2.0,98,0.00,,---,0.30,VWS V14.01,2015-07-06 11:38:00,
2015-07-06 07:39:00,78.1,77.5,30.05,East,84,0.0,2.0,98,0.00,,---,0.30,VWS V14.01,2015-07-06 11:39:00,
2015-07-06 07:40:00,78.1,77.5,30.05,East,84,0.0,2.0,98,0.00,,---,0.30,VWS V14.01,2015-07-06 11:40:00,
2015-07-06 07:41:00,78.1,77.5,30.05,East,84,0.0,2.0,98,0.00,,---,0.30,VWS V14.01,2015-07-06 11:41:00,
2015-07-06 07:42:00,78.1,77.5,30.05,East,84,0.0,2.0,98,0.00,,---,0.30,VWS V14.01,2015-07-06 11:42:00,
2015-07-06 07:43:00,78.3,77.7,30.05,East,84,0.0,2.0,98,0.00,,---,0.30,VWS V14.01,2015-07-06 11:43:00,
2015-07-06 07:44:00,78.3,77.7,30.05,East,84,0.0,2.0,98,0.00,,---,0.30,VWS V14.01,2015-07-06 11:44:00,
2015-07-06 07:45:00,78.3,77.7,30.06,East,84,0.0,2.0,98,0.00,,---,0.30,VWS V14.01,2015-07-06 11:45:00,
2015-07-06 07:46:00,78.3,77.7,30.06,East,84,0.0,2.0,98,0.00,,---,0.30,VWS V14.01,2015-07-06 11:46:00,
2015-07-06 07:47:00,78.3,77.4,30.06,East,84,0.0,2.0,97,0.00,,---,0.30,VWS V14.01,2015-07-06 11:47:00,
2015-07-06 07:48:00,78.5,77.6,30.06,East,84,0.0,2.0,97,0.00,,---,0.30,VWS V14.01,2015-07-06 11:48:00,
2015-07-06 07:49:00,78.5,77.6,30.06,East,84,0.0,2.0,97,0.00,,---,0.30,VWS V14.01,2015-07-06 11:49:00,
2015-07-06 07:50:00,78.5,77.6,30.06,East,84,0.0,2.0,97,0.00,,---,0.30,VWS V14.01,2015-07-06 11:50:00,
2015-07-06 07:51:00,78.5,77.6,30.06,East,84,0.0,2.0,97,0.00,,---,0.30,VWS V14.01,2015-07-06 11:51:00,
2015-07-06 07:52:00,78.5,77.6,30.06,East,84,0.0,2.0,97,0.00,,---,0.30,VWS V14.01,2015-07-06 11:52:00,
2015-07-06 07:53:00,78.5,77.6,30.06,East,84,0.0,2.0,97,0.00,,---,0.30,VWS V14.01,2015-07-06 11:53:00,
2015-07-06 07:54:00,78.5,77.6,30.06,East,84,0.0,2.0,97,0.00,,---,0.30,VWS V14.01,2015-07-06 11:54:00,
2015-07-06 07:55:00,78.6,77.7,30.06,East,84,0.0,2.0,97,0.00,,---,0.30,VWS V14.01,2015-07-06 11:55:00,
2015-07-06 07:56:00,78.6,77.7,30.06,East,84,0.0,2.0,97,0.00,,---,0.30,VWS V14.01,2015-07-06 11:56:00,
2015-07-06 07:57:00,78.6,77.7,30.06,East,84,0.0,2.0,97,0.00,,---,0.30,VWS V14.01,2015-07-06 11:57:00,
2015-07-06 07:58:00,78.6,77.7,30.06,East,84,0.0,2.0,97,0.00,,---,0.30,VWS V14.01,2015-07-06 11:58:00,
2015-07-06 07:59:00,78.6,77.7,30.06,East,84,0.0,2.0,97,0.00,,---,0.30,VWS V14.01,2015-07-06 11:59:00,
2015-07-06 08:00:00,78.6,77.7,30.06,East,84,0.0,2.0,97,0.00,,---,0.30,VWS V14.01,2015-07-06 12:00:00,
2015-07-06 08:01:00,78.8,77.9,30.06,East,84,0.0,0.0,97,0.00,,---,0.30,VWS V14.01,2015-07-06 12:01:00,
2015-07-06 08:02:00,78.8,77.9,30.06,East,84,1.0,1.0,97,0.00,,---,0.30,VWS V14.01,2015-07-06 12:02:00,
2015-07-06 08:03:00,78.8,77.9,30.06,East,84,1.0,1.0,97,0.00,,---,0.30,VWS V14.01,2015-07-06 12:03:00,
2015-07-06 08:04:00,78.8,77.9,30.06,East,84,0.0,2.0,97,0.00,,---,0.30,VWS V14.01,2015-07-06 12:04:00,
2015-07-06 08:05:00,78.8,77.9,30.06,East,84,0.0,2.0,97,0.00,,---,0.30,VWS V14.01,2015-07-06 12:05:00,
2015-07-06 08:06:00,79.0,78.1,30.06,East,84,1.0,2.0,97,0.00,,---,0.30,VWS V14.01,2015-07-06 12:06:00,
2015-07-06 08:07:00,79.0,77.8,30.06,East,84,0.0,2.0,96,0.00,,---,0.30,VWS V14.01,2015-07-06 12:07:00,
2015-07-06 08:08:00,79.0,77.8,30.06,East,84,1.0,3.0,96,0.00,,---,0.30,VWS V14.01,2015-07-06 12:08:00,
2015-07-06 08:09:00,79.0,77.8,30.06,East,84,1.0,3.0,96,0.00,,---,0.30,VWS V14.01,2015-07-06 12:09:00,
2015-07-06 08:10:00,79.0,77.8,30.06,East,84,1.0,3.0,96,0.00,,---,0.30,VWS V14.01,2015-07-06 12:10:00,
2015-07-06 08:11:00,79.0,77.8,30.06,East,84,1.0,3.0,96,0.00,,---,0.30,VWS V14.01,2015-07-06 12:11:00,
2015-07-06 08:12:00,79.0,77.8,30.06,East,84,1.0,3.0,96,0.00,,---,0.30,VWS V14.01,2015-07-06 12:12:00,
2015-07-06 08:13:00,79.2,78.0,30.06,East,84,2.0,3.0,96,0.00,,---,0.30,VWS V14.01,2015-07-06 12:13:00,
2015-07-06 08:14:00,79.2,78.0,30.06,East,84,2.0,3.0,96,0.00,,---,0.30,VWS V14.01,2015-07-06 12:14:00,
2015-07-06 08:15:00,79.2,78.0,30.07,East,84,0.0,3.0,96,0.00,,---,0.30,VWS V14.01,2015-07-06 12:15:00,
2015-07-06 08:16:00,79.2,78.0,30.07,East,84,0.0,3.0,96,0.00,,---,0.30,VWS V14.01,2015-07-06 12:16:00,
2015-07-06 08:17:00,79.2,78.0,30.07,East,84,2.0,4.0,96,0.00,,---,0.30,VWS V14.01,2015-07-06 12:17:00,
2015-07-06 08:18:00,79.2,77.7,30.07,East,84,4.0,4.0,95,0.00,,---,0.30,VWS V14.01,2015-07-06 12:18:00,
2015-07-06 08:19:00,79.2,77.7,30.07,East,84,2.0,4.0,95,0.00,,---,0.30,VWS V14.01,2015-07-06 12:19:00,
2015-07-06 08:20:00,79.2,77.7,30.07,East,84,2.0,4.0,95,0.00,,---,0.30,VWS V14.01,2015-07-06 12:20:00,
2015-07-06 08:21:00,79.2,77.7,30.07,East,84,2.0,4.0,95,0.00,,---,0.30,VWS V14.01,2015-07-06 12:21:00,
2015-07-06 08:22:00,79.2,77.7,30.07,East,84,2.0,4.0,95,0.00,,---,0.30,VWS V14.01,2015-07-06 12:22:00,
2015-07-06 08:23:00,79.2,77.7,30.07,East,84,1.0,4.0,95,0.00,,---,0.30,VWS V14.01,2015-07-06 12:23:00,
2015-07-06 08:24:00,79.4,77.8,30.07,East,83,2.0,4.0,95,0.00,,---,0.30,VWS V14.01,2015-07-06 12:24:00,
2015-07-06 08:25:00,79.4,77.8,30.07,ENE,74,3.0,4.0,95,0.00,,---,0.30,VWS V14.01,2015-07-06 12:25:00,
2015-07-06 08:26:00,79.4,77.8,30.07,ENE,74,0.0,4.0,95,0.00,,---,0.30,VWS V14.01,2015-07-06 12:26:00,
2015-07-06 08:27:00,79.4,77.8,30.07,ENE,74,3.0,4.0,95,0.00,,---,0.30,VWS V14.01,2015-07-06 12:27:00,
2015-07-06 08:28:00,79.6,78.1,30.07,ENE,74,0.0,4.0,95,0.00,,---,0.30,VWS V14.01,2015-07-06 12:28:00,
2015-07-06 08:29:00,79.6,78.1,30.07,ENE,74,2.0,4.0,95,0.00,,---,0.30,VWS V14.01,2015-07-06 12:29:00,
2015-07-06 08:30:00,79.6,78.1,30.08,ENE,71,5.0,5.0,95,0.00,,---,0.30,VWS V14.01,2015-07-06 12:30:00,
2015-07-06 08:31:00,79.6,78.1,30.08,ENE,65,4.0,5.0,95,0.00,,---,0.30,VWS V14.01,2015-07-06 12:31:00,
2015-07-06 08:32:00,79.6,78.1,30.08,ENE,65,3.0,5.0,95,0.00,,---,0.30,VWS V14.01,2015-07-06 12:32:00,
2015-07-06 08:33:00,79.6,77.7,30.08,ENE,65,2.0,5.0,94,0.00,,---,0.30,VWS V14.01,2015-07-06 12:33:00,
2015-07-06 08:34:00,79.6,77.7,30.08,North,355,6.0,6.0,94,0.00,,---,0.30,VWS V14.01,2015-07-06 12:34:00,
2015-07-06 08:35:00,79.6,77.7,30.08,North,355,5.0,6.0,94,0.00,,---,0.30,VWS V14.01,2015-07-06 12:35:00,
2015-07-06 08:36:00,79.6,77.4,30.08,North,355,2.0,6.0,93,0.00,,---,0.30,VWS V14.01,2015-07-06 12:36:00,
2015-07-06 08:37:00,79.6,77.4,30.08,North,355,3.0,6.0,93,0.00,,---,0.30,VWS V14.01,2015-07-06 12:37:00,
2015-07-06 08:38:00,79.6,77.4,30.08,North,355,0.0,6.0,93,0.00,,---,0.30,VWS V14.01,2015-07-06 12:38:00,
2015-07-06 08:39:00,79.6,77.4,30.08,North,355,0.0,6.0,93,0.00,,---,0.30,VWS V14.01,2015-07-06 12:39:00,
2015-07-06 08:40:00,79.8,77.6,30.08,North,355,3.0,6.0,93,0.00,,---,0.30,VWS V14.01,2015-07-06 12:40:00,
2015-07-06 08:41:00,79.8,77.6,30.08,North,355,0.0,6.0,93,0.00,,---,0.30,VWS V14.01,2015-07-06 12:41:00,
2015-07-06 08:42:00,79.8,77.6,30.08,North,355,0.0,6.0,93,0.00,,---,0.30,VWS V14.01,2015-07-06 12:42:00,
2015-07-06 08:43:00,79.8,77.6,30.08,North,355,0.0,6.0,93,0.00,,---,0.30,VWS V14.01,2015-07-06 12:43:00,
2015-07-06 08:44:00,79.8,77.6,30.08,North,355,0.0,6.0,93,0.00,,---,0.30,VWS V14.01,2015-07-06 12:44:00,
2015-07-06 08:45:00,79.8,77.6,30.08,North,355,4.0,6.0,93,0.00,,---,0.30,VWS V14.01,2015-07-06 12:45:00,
2015-07-06 08:46:00,79.9,77.4,30.08,North,355,2.0,6.0,92,0.00,,---,0.30,VWS V14.01,2015-07-06 12:46:00,
2015-07-06 08:47:00,79.9,77.4,30.08,North,355,2.0,6.0,92,0.00,,---,0.30,VWS V14.01,2015-07-06 12:47:00,
2015-07-06 08:48:00,79.9,77.4,30.08,North,355,2.0,6.0,92,0.00,,---,0.30,VWS V14.01,2015-07-06 12:48:00,
2015-07-06 08:49:00,79.9,77.4,30.08,North,355,1.0,6.0,92,0.00,,---,0.30,VWS V14.01,2015-07-06 12:49:00,
2015-07-06 08:50:00,79.9,77.4,30.08,North,355,4.0,6.0,92,0.00,,---,0.30,VWS V14.01,2015-07-06 12:50:00,
2015-07-06 08:51:00,79.9,77.0,30.08,North,351,3.0,7.0,91,0.00,,---,0.30,VWS V14.01,2015-07-06 12:51:00,
2015-07-06 08:52:00,79.9,77.0,30.08,North,351,4.0,7.0,91,0.00,,---,0.30,VWS V14.01,2015-07-06 12:52:00,
2015-07-06 08:53:00,79.9,77.0,30.08,North,351,4.0,7.0,91,0.00,,---,0.30,VWS V14.01,2015-07-06 12:53:00,
2015-07-06 08:54:00,80.1,77.2,30.08,North,350,6.0,7.0,91,0.00,,---,0.30,VWS V14.01,2015-07-06 12:54:00,
2015-07-06 08:55:00,80.1,76.9,30.08,North,350,6.0,7.0,90,0.00,,---,0.30,VWS V14.01,2015-07-06 12:55:00,
2015-07-06 08:56:00,80.1,76.9,30.08,North,350,2.0,7.0,90,0.00,,---,0.30,VWS V14.01,2015-07-06 12:56:00,
2015-07-06 08:57:00,80.1,76.9,30.08,North,350,5.0,7.0,90,0.00,,---,0.30,VWS V14.01,2015-07-06 12:57:00,
2015-07-06 08:58:00,80.1,76.9,30.08,North,350,3.0,7.0,90,0.00,,---,0.30,VWS V14.01,2015-07-06 12:58:00,
2015-07-06 08:59:00,80.3,77.1,30.08,North,350,2.0,7.0,90,0.00,,---,0.30,VWS V14.01,2015-07-06 12:59:00,
2015-07-06 09:00:00,80.3,77.1,30.08,North,350,2.0,7.0,90,0.00,,---,0.30,VWS V14.01,2015-07-06 13:00:00,
2015-07-06 09:01:00,80.3,77.1,30.08,North,350,2.0,2.0,90,0.00,,---,0.30,VWS V14.01,2015-07-06 13:01:00,
2015-07-06 09:02:00,80.5,77.3,30.08,North,350,1.0,2.0,90,0.00,,---,0.30,VWS V14.01,2015-07-06 13:02:00,
2015-07-06 09:03:00,80.5,77.3,30.08,North,350,1.0,2.0,90,0.00,,---,0.30,VWS V14.01,2015-07-06 13:03:00,
2015-07-06 09:04:00,80.7,77.5,30.08,North,350,2.0,2.0,90,0.00,,---,0.30,VWS V14.01,2015-07-06 13:04:00,
2015-07-06 09:05:00,80.7,77.2,30.08,North,350,5.0,5.0,89,0.00,,---,0.30,VWS V14.01,2015-07-06 13:05:00,
2015-07-06 09:06:00,80.7,76.8,30.08,North,350,1.0,5.0,88,0.00,,---,0.30,VWS V14.01,2015-07-06 13:06:00,
2015-07-06 09:07:00,80.7,76.8,30.08,North,350,3.0,5.0,88,0.00,,---,0.30,VWS V14.01,2015-07-06 13:07:00,
2015-07-06 09:08:00,80.7,76.8,30.08,North,350,1.0,5.0,88,0.00,,---,0.30,VWS V14.01,2015-07-06 13:08:00,
2015-07-06 09:09:00,80.9,77.0,30.08,North,350,3.0,5.0,88,0.00,,---,0.30,VWS V14.01,2015-07-06 13:09:00,
2015-07-06 09:10:00,80.9,77.0,30.08,North,350,2.0,5.0,88,0.00,,---,0.30,VWS V14.01,2015-07-06 13:10:00,
2015-07-06 09:11:00,80.9,77.0,30.08,North,349,4.0,5.0,88,0.00,,---,0.30,VWS V14.01,2015-07-06 13:11:00,
2015-07-06 09:12:00,80.9,77.0,30.08,North,349,3.0,5.0,88,0.00,,---,0.30,VWS V14.01,2015-07-06 13:12:00,
2015-07-06 09:13:00,81.1,77.2,30.08,North,349,4.0,5.0,88,0.00,,---,0.30,VWS V14.01,2015-07-06 13:13:00,
2015-07-06 09:14:00,81.1,77.2,30.08,NNW,348,6.0,6.0,88,0.00,,---,0.30,VWS V14.01,2015-07-06 13:14:00,
2015-07-06 09:15:00,81.1,77.2,30.09,NNW,348,6.0,6.0,88,0.00,,---,0.30,VWS V14.01,2015-07-06 13:15:00,
2015-07-06 09:16:00,81.2,77.3,30.09,North,349,5.0,6.0,88,0.00,,---,0.30,VWS V14.01,2015-07-06 13:16:00,
2015-07-06 09:17:00,81.2,77.0,30.09,NNW,348,2.0,6.0,87,0.00,,---,0.30,VWS V14.01,2015-07-06 13:17:00,
2015-07-06 09:18:00,81.2,77.3,30.09,NNW,347,7.0,7.0,88,0.00,,---,0.30,VWS V14.01,2015-07-06 13:18:00,
2015-07-06 09:19:00,81.2,77.3,30.09,NNW,347,5.0,9.0,88,0.00,,---,0.30,VWS V14.01,2015-07-06 13:19:00,
2015-07-06 09:20:00,81.2,76.6,30.09,NNW,346,4.0,9.0,86,0.00,,---,0.30,VWS V14.01,2015-07-06 13:20:00,
2015-07-06 09:21:00,81.4,77.2,30.09,NNW,346,3.0,9.0,87,0.00,,---,0.30,VWS V14.01,2015-07-06 13:21:00,
2015-07-06 09:22:00,81.4,76.8,30.09,NNW,346,5.0,9.0,86,0.00,,---,0.30,VWS V14.01,2015-07-06 13:22:00,
2015-07-06 09:23:00,81.4,76.8,30.09,NNW,347,5.0,9.0,86,0.00,,---,0.30,VWS V14.01,2015-07-06 13:23:00,
2015-07-06 09:24:00,81.4,76.8,30.09,NNW,346,5.0,9.0,86,0.00,,---,0.30,VWS V14.01,2015-07-06 13:24:00,
2015-07-06 09:25:00,81.4,76.8,30.09,NNW,346,3.0,9.0,86,0.00,,---,0.30,VWS V14.01,2015-07-06 13:25:00,
2015-07-06 09:26:00,81.4,76.8,30.09,NNW,346,4.0,9.0,86,0.00,,---,0.30,VWS V14.01,2015-07-06 13:26:00,
2015-07-06 09:27:00,81.4,76.8,30.09,NNW,346,3.0,9.0,86,0.00,,---,0.30,VWS V14.01,2015-07-06 13:27:00,
2015-07-06 09:28:00,81.6,77.0,30.09,NNW,346,4.0,9.0,86,0.00,,---,0.30,VWS V14.01,2015-07-06 13:28:00,
2015-07-06 09:29:00,81.6,77.0,30.09,NNW,347,5.0,9.0,86,0.00,,---,0.30,VWS V14.01,2015-07-06 13:29:00,
2015-07-06 09:30:00,81.6,77.0,30.09,NNW,346,5.0,9.0,86,0.00,,---,0.30,VWS V14.01,2015-07-06 13:30:00,
2015-07-06 09:31:00,81.6,77.0,30.09,NNW,346,5.0,6.0,86,0.00,,---,0.30,VWS V14.01,2015-07-06 13:31:00,
2015-07-06 09:32:00,81.6,77.0,30.09,NNW,346,4.0,6.0,86,0.00,,---,0.30,VWS V14.01,2015-07-06 13:32:00,
2015-07-06 09:33:00,81.6,77.0,30.09,NNW,346,3.0,6.0,86,0.00,,---,0.30,VWS V14.01,2015-07-06 13:33:00,
2015-07-06 09:34:00,81.6,77.0,30.09,NNW,346,3.0,6.0,86,0.00,,---,0.30,VWS V14.01,2015-07-06 13:34:00,
2015-07-06 09:35:00,81.8,76.8,30.09,NNW,345,5.0,6.0,85,0.00,,---,0.30,VWS V14.01,2015-07-06 13:35:00,
2015-07-06 09:36:00,81.8,77.2,30.09,NNW,345,8.0,8.0,86,0.00,,---,0.30,VWS V14.01,2015-07-06 13:36:00,
2015-07-06 09:37:00,81.8,76.8,30.09,NNW,345,3.0,8.0,85,0.00,,---,0.30,VWS V14.01,2015-07-06 13:37:00,
2015-07-06 09:38:00,81.8,76.8,30.09,NNW,345,3.0,8.0,85,0.00,,---,0.30,VWS V14.01,2015-07-06 13:38:00,
2015-07-06 09:39:00,81.8,76.8,30.09,NNW,345,4.0,8.0,85,0.00,,---,0.30,VWS V14.01,2015-07-06 13:39:00,
2015-07-06 09:40:00,81.8,76.8,30.09,NNW,346,7.0,8.0,85,0.00,,---,0.30,VWS V14.01,2015-07-06 13:40:00,
2015-07-06 09:41:00,81.8,76.8,30.09,NNW,345,3.0,8.0,85,0.00,,---,0.30,VWS V14.01,2015-07-06 13:41:00,
2015-07-06 09:42:00,82.0,77.1,30.09,NNW,343,5.0,8.0,85,0.00,,---,0.30,VWS V14.01,2015-07-06 13:42:00,
2015-07-06 09:43:00,82.0,77.1,30.09,NNW,343,5.0,8.0,85,0.00,,---,0.30,VWS V14.01,2015-07-06 13:43:00,
2015-07-06 09:44:00,82.0,77.1,30.09,NNW,344,2.0,8.0,85,0.00,,---,0.30,VWS V14.01,2015-07-06 13:44:00,
2015-07-06 09:45:00,82.2,77.2,30.09,NNW,344,3.0,8.0,85,0.00,,---,0.30,VWS V14.01,2015-07-06 13:45:00,
2015-07-06 09:46:00,82.2,77.2,30.09,NNW,344,3.0,8.0,85,0.00,,---,0.30,VWS V14.01,2015-07-06 13:46:00,
2015-07-06 09:47:00,82.4,77.4,30.09,NNW,344,5.0,8.0,85,0.00,,---,0.30,VWS V14.01,2015-07-06 13:47:00,
2015-07-06 09:48:00,82.4,77.4,30.09,NNW,344,2.0,8.0,85,0.00,,---,0.30,VWS V14.01,2015-07-06 13:48:00,
2015-07-06 09:49:00,82.6,77.6,30.09,NNW,344,6.0,8.0,85,0.00,,---,0.30,VWS V14.01,2015-07-06 13:49:00,
2015-07-06 09:50:00,82.6,77.6,30.09,NNW,344,5.0,8.0,85,0.00,,---,0.30,VWS V14.01,2015-07-06 13:50:00,
2015-07-06 09:51:00,82.8,77.5,30.09,NNW,344,4.0,8.0,84,0.00,,---,0.30,VWS V14.01,2015-07-06 13:51:00,
2015-07-06 09:52:00,82.8,77.5,30.09,NNW,344,4.0,8.0,84,0.00,,---,0.30,VWS V14.01,2015-07-06 13:52:00,
2015-07-06 09:53:00,83.0,77.7,30.09,NNW,344,3.0,8.0,84,0.00,,---,0.30,VWS V14.01,2015-07-06 13:53:00,
2015-07-06 09:54:00,83.0,77.7,30.09,NNW,344,3.0,8.0,84,0.00,,---,0.30,VWS V14.01,2015-07-06 13:54:00,
2015-07-06 09:55:00,83.2,77.9,30.09,NNW,344,2.0,8.0,84,0.00,,---,0.30,VWS V14.01,2015-07-06 13:55:00,
2015-07-06 09:56:00,83.2,77.5,30.09,NNW,344,0.0,8.0,83,0.00,,---,0.30,VWS V14.01,2015-07-06 13:56:00,
2015-07-06 09:57:00,83.4,78.1,30.09,NNW,344,3.0,8.0,84,0.00,,---,0.30,VWS V14.01,2015-07-06 13:57:00,
2015-07-06 09:58:00,83.6,77.9,30.09,NNW,344,1.0,8.0,83,0.00,,---,0.30,VWS V14.01,2015-07-06 13:58:00,
2015-07-06 09:59:00,83.6,77.9,30.09,NNW,344,2.0,8.0,83,0.00,,---,0.30,VWS V14.01,2015-07-06 13:59:00,
2015-07-06 10:00:00,83.8,78.1,30.09,NNW,344,7.0,8.0,83,0.00,,---,0.30,VWS V14.01,2015-07-06 14:00:00,
2015-07-06 10:01:00,83.8,77.7,30.09,NNW,344,5.0,5.0,82,0.00,,---,0.30,VWS V14.01,2015-07-06 14:01:00,
2015-07-06 10:02:00,84.0,77.9,30.09,NNW,344,2.0,5.0,82,0.00,,---,0.30,VWS V14.01,2015-07-06 14:02:00,
2015-07-06 10:03:00,84.1,78.0,30.09,NNW,344,3.0,5.0,82,0.00,,---,0.30,VWS V14.01,2015-07-06 14:03:00,
2015-07-06 10:04:00,84.1,78.0,30.09,NNW,344,3.0,5.0,82,0.00,,---,0.30,VWS V14.01,2015-07-06 14:04:00,
2015-07-06 10:05:00,84.3,78.2,30.09,NNW,344,2.0,5.0,82,0.00,,---,0.30,VWS V14.01,2015-07-06 14:05:00,
2015-07-06 10:06:00,84.5,78.0,30.09,NNW,344,3.0,5.0,81,0.00,,---,0.30,VWS V14.01,2015-07-06 14:06:00,
2015-07-06 10:07:00,84.7,78.2,30.09,NNW,344,2.0,5.0,81,0.00,,---,0.30,VWS V14.01,2015-07-06 14:07:00,
2015-07-06 10:08:00,84.7,77.8,30.09,NNW,344,0.0,5.0,80,0.00,,---,0.30,VWS V14.01,2015-07-06 14:08:00,
2015-07-06 10:09:00,84.9,78.0,30.09,NNW,344,1.0,5.0,80,0.00,,---,0.30,VWS V14.01,2015-07-06 14:09:00,
2015-07-06 10:10:00,85.1,78.2,30.09,NNW,344,0.0,5.0,80,0.00,,---,0.30,VWS V14.01,2015-07-06 14:10:00,
2015-07-06 10:11:00,85.1,78.2,30.09,NNW,344,1.0,5.0,80,0.00,,---,0.30,VWS V14.01,2015-07-06 14:11:00,
2015-07-06 10:12:00,85.3,78.1,30.09,NNW,344,2.0,5.0,79,0.00,,---,0.30,VWS V14.01,2015-07-06 14:12:00,
2015-07-06 10:13:00,85.5,78.2,30.09,NNW,344,0.0,5.0,79,0.00,,---,0.30,VWS V14.01,2015-07-06 14:13:00,
2015-07-06 10:14:00,85.7,78.4,30.09,NNW,344,0.0,5.0,79,0.00,,---,0.30,VWS V14.01,2015-07-06 14:14:00,
2015-07-06 10:15:00,85.9,78.2,30.09,NNW,344,1.0,5.0,78,0.00,,---,0.30,VWS V14.01,2015-07-06 14:15:00,
2015-07-06 10:16:00,85.9,78.2,30.09,NNW,344,2.0,5.0,78,0.00,,---,0.30,VWS V14.01,2015-07-06 14:16:00,
2015-07-06 10:17:00,86.1,78.4,30.09,NNW,344,5.0,5.0,78,0.00,,---,0.30,VWS V14.01,2015-07-06 14:17:00,
2015-07-06 10:18:00,86.3,78.2,30.09,NNW,344,4.0,5.0,77,0.00,,---,0.30,VWS V14.01,2015-07-06 14:18:00,
2015-07-06 10:19:00,86.5,78.4,30.09,NNW,344,3.0,5.0,77,0.00,,---,0.30,VWS V14.01,2015-07-06 14:19:00,
2015-07-06 10:20:00,86.5,77.6,30.09,NNW,344,3.0,6.0,75,0.00,,---,0.30,VWS V14.01,2015-07-06 14:20:00,
2015-07-06 10:21:00,86.7,77.8,30.09,NNW,344,3.0,6.0,75,0.00,,---,0.30,VWS V14.01,2015-07-06 14:21:00,
2015-07-06 10:22:00,85.1,78.2,30.09,NNW,344,0.0,5.0,80,0.00,,---,0.30,VWS V14.01,2015-07-06 14:22:00,
2015-07-06 10:23:00,87.0,77.7,30.09,NNW,344,2.0,6.0,74,0.00,,---,0.30,VWS V14.01,2015-07-06 14:23:00,
2015-07-06 10:24:00,87.2,78.3,30.09,NNW,344,0.0,6.0,75,0.00,,---,0.30,VWS V14.01,2015-07-06 14:24:00,
2015-07-06 10:25:00,87.4,78.5,30.09,NNW,344,3.0,6.0,75,0.00,,---,0.30,VWS V14.01,2015-07-06 14:25:00,
2015-07-06 10:26:00,87.6,78.7,30.09,NNW,344,2.0,6.0,75,0.00,,---,0.30,VWS V14.01,2015-07-06 14:26:00,
2015-07-06 10:27:00,87.8,78.9,30.09,NNW,344,3.0,6.0,75,0.00,,---,0.30,VWS V14.01,2015-07-06 14:27:00,
2015-07-06 10:28:00,87.8,78.9,30.09,NNW,344,3.0,6.0,75,0.00,,---,0.30,VWS V14.01,2015-07-06 14:28:00,
2015-07-06 10:29:00,88.0,77.8,30.09,NNW,344,2.0,6.0,72,0.00,,---,0.30,VWS V14.01,2015-07-06 14:29:00,
2015-07-06 10:30:00,88.2,78.0,30.09,NNW,344,2.0,6.0,72,0.00,,---,0.30,VWS V14.01,2015-07-06 14:30:00,
2015-07-06 10:31:00,88.2,78.0,30.09,NNW,344,2.0,5.0,72,0.00,,---,0.30,VWS V14.01,2015-07-06 14:31:00,
2015-07-06 10:32:00,88.4,78.7,30.09,NNW,344,3.0,5.0,73,0.00,,---,0.30,VWS V14.01,2015-07-06 14:32:00,
2015-07-06 10:33:00,88.4,78.7,30.09,NNW,344,3.0,5.0,73,0.00,,---,0.30,VWS V14.01,2015-07-06 14:33:00,
2015-07-06 10:34:00,88.4,78.2,30.09,NNW,344,4.0,5.0,72,0.00,,---,0.30,VWS V14.01,2015-07-06 14:34:00,
2015-07-06 10:35:00,88.4,78.2,30.09,NNW,344,3.0,5.0,72,0.00,,---,0.30,VWS V14.01,2015-07-06 14:35:00,
2015-07-06 10:36:00,88.4,78.2,30.09,NNW,344,3.0,5.0,72,0.00,,---,0.30,VWS V14.01,2015-07-06 14:36:00,
2015-07-06 10:37:00,88.4,78.2,30.09,NNW,344,2.0,5.0,72,0.00,,---,0.30,VWS V14.01,2015-07-06 14:37:00,
2015-07-06 10:38:00,88.6,78.4,30.09,NNW,344,0.0,5.0,72,0.00,,---,0.30,VWS V14.01,2015-07-06 14:38:00,
2015-07-06 10:39:00,88.6,78.0,30.09,NNW,344,5.0,5.0,71,0.00,,---,0.30,VWS V14.01,2015-07-06 14:39:00,
2015-07-06 10:40:00,88.6,78.0,30.09,NNW,344,0.0,5.0,71,0.00,,---,0.30,VWS V14.01,2015-07-06 14:40:00,
2015-07-06 10:41:00,88.6,78.4,30.09,NNW,344,0.0,5.0,72,0.00,,---,0.30,VWS V14.01,2015-07-06 14:41:00,
2015-07-06 10:42:00,88.8,78.6,30.09,NNW,344,2.0,5.0,72,0.00,,---,0.30,VWS V14.01,2015-07-06 14:42:00,
2015-07-06 10:43:00,89.0,78.8,30.09,NNW,344,3.0,5.0,72,0.00,,---,0.30,VWS V14.01,2015-07-06 14:43:00,
2015-07-06 10:44:00,89.0,78.8,30.09,NNW,344,5.0,5.0,72,0.00,,---,0.30,VWS V14.01,2015-07-06 14:44:00,
2015-07-06 10:45:00,89.0,78.8,30.09,NNW,344,3.0,5.0,72,0.00,,---,0.30,VWS V14.01,2015-07-06 14:45:00,
2015-07-06 10:46:00,89.0,78.4,30.09,NNW,344,4.0,5.0,71,0.00,,---,0.30,VWS V14.01,2015-07-06 14:46:00,
2015-07-06 10:47:00,89.3,77.8,30.09,NNW,344,2.0,5.0,69,0.00,,---,0.30,VWS V14.01,2015-07-06 14:47:00,
2015-07-06 10:48:00,89.3,78.2,30.09,NNW,344,1.0,5.0,70,0.00,,---,0.30,VWS V14.01,2015-07-06 14:48:00,
2015-07-06 10:49:00,89.3,77.8,30.09,NNW,344,0.0,5.0,69,0.00,,---,0.30,VWS V14.01,2015-07-06 14:49:00,
2015-07-06 10:50:00,89.5,78.4,30.09,NNW,344,1.0,5.0,70,0.00,,---,0.30,VWS V14.01,2015-07-06 14:50:00,
2015-07-06 10:51:00,89.5,78.4,30.09,NNW,344,0.0,5.0,70,0.00,,---,0.30,VWS V14.01,2015-07-06 14:51:00,
2015-07-06 10:52:00,89.5,79.3,30.09,NNW,344,0.0,5.0,72,0.00,,---,0.30,VWS V14.01,2015-07-06 14:52:00,
2015-07-06 10:53:00,89.7,79.1,30.09,NNW,344,0.0,5.0,71,0.00,,---,0.30,VWS V14.01,2015-07-06 14:53:00,
2015-07-06 10:54:00,89.7,78.6,30.09,NNW,344,3.0,5.0,70,0.00,,---,0.30,VWS V14.01,2015-07-06 14:54:00,
2015-07-06 10:55:00,89.9,78.8,30.09,NNW,344,0.0,5.0,70,0.00,,---,0.30,VWS V14.01,2015-07-06 14:55:00,
2015-07-06 10:56:00,89.9,78.8,30.09,NNW,344,1.0,5.0,70,0.00,,---,0.30,VWS V14.01,2015-07-06 14:56:00,
2015-07-06 10:57:00,90.1,78.6,30.09,NNW,344,1.0,5.0,69,0.00,,---,0.30,VWS V14.01,2015-07-06 14:57:00,
2015-07-06 10:58:00,90.3,78.8,30.09,NNW,344,1.0,5.0,69,0.00,,---,0.30,VWS V14.01,2015-07-06 14:58:00,
2015-07-06 10:59:00,90.3,78.8,30.09,NNW,344,3.0,5.0,69,0.00,,---,0.30,VWS V14.01,2015-07-06 14:59:00,
2015-07-06 11:00:00,90.3,78.3,30.09,NNW,344,0.0,5.0,68,0.00,,---,0.30,VWS V14.01,2015-07-06 15:00:00,
2015-07-06 11:01:00,90.5,78.5,30.09,NNW,344,0.0,0.0,68,0.00,,---,0.30,VWS V14.01,2015-07-06 15:01:00,
2015-07-06 11:02:00,90.5,78.5,30.09,NNW,344,1.0,1.0,68,0.00,,---,0.30,VWS V14.01,2015-07-06 15:02:00,
2015-07-06 11:03:00,90.7,78.7,30.09,NNW,344,0.0,1.0,68,0.00,,---,0.30,VWS V14.01,2015-07-06 15:03:00,
2015-07-06 11:04:00,90.7,78.2,30.09,NNW,344,1.0,1.0,67,0.00,,---,0.30,VWS V14.01,2015-07-06 15:04:00,
2015-07-06 11:05:00,90.7,78.2,30.09,North,360,1.0,5.0,67,0.00,,---,0.30,VWS V14.01,2015-07-06 15:05:00,
2015-07-06 11:06:00,90.7,77.8,30.09,North,360,1.0,5.0,66,0.00,,---,0.30,VWS V14.01,2015-07-06 15:06:00,
2015-07-06 11:07:00,91.0,78.1,30.09,North,360,0.0,5.0,66,0.00,,---,0.30,VWS V14.01,2015-07-06 15:07:00,
2015-07-06 11:08:00,91.0,77.6,30.09,North,360,0.0,5.0,65,0.00,,---,0.30,VWS V14.01,2015-07-06 15:08:00,
2015-07-06 11:09:00,91.2,77.8,30.09,North,360,0.0,5.0,65,0.00,,---,0.30,VWS V14.01,2015-07-06 15:09:00,
2015-07-06 11:10:00,91.2,77.8,30.09,North,360,0.0,5.0,65,0.00,,---,0.30,VWS V14.01,2015-07-06 15:10:00,
2015-07-06 11:11:00,91.4,78.4,30.09,North,360,4.0,5.0,66,0.00,,---,0.30,VWS V14.01,2015-07-06 15:11:00,
2015-07-06 11:12:00,91.4,78.0,30.09,North,360,0.0,5.0,65,0.00,,---,0.30,VWS V14.01,2015-07-06 15:12:00,
2015-07-06 11:13:00,91.6,78.2,30.09,North,360,0.0,5.0,65,0.00,,---,0.30,VWS V14.01,2015-07-06 15:13:00,
2015-07-06 11:14:00,91.6,78.2,30.09,North,360,1.0,5.0,65,0.00,,---,0.30,VWS V14.01,2015-07-06 15:14:00,
2015-07-06 11:15:00,91.6,77.2,30.09,North,360,0.0,5.0,63,0.00,,---,0.30,VWS V14.01,2015-07-06 15:15:00,
2015-07-06 11:16:00,91.6,77.7,30.09,North,360,0.0,5.0,64,0.00,,---,0.30,VWS V14.01,2015-07-06 15:16:00,
2015-07-06 11:17:00,91.6,78.2,30.09,North,360,0.0,5.0,65,0.00,,---,0.30,VWS V14.01,2015-07-06 15:17:00,
2015-07-06 11:18:00,91.8,77.9,30.09,North,360,2.0,5.0,64,0.00,,---,0.30,VWS V14.01,2015-07-06 15:18:00,
2015-07-06 11:19:00,91.8,77.9,30.09,North,360,0.0,5.0,64,0.00,,---,0.30,VWS V14.01,2015-07-06 15:19:00,
2015-07-06 11:20:00,92.1,78.2,30.09,North,360,1.0,5.0,64,0.00,,---,0.30,VWS V14.01,2015-07-06 15:20:00,
2015-07-06 11:21:00,92.1,77.7,30.09,North,360,0.0,5.0,63,0.00,,---,0.30,VWS V14.01,2015-07-06 15:21:00,
2015-07-06 11:22:00,92.1,78.2,30.09,North,360,0.0,5.0,64,0.00,,---,0.30,VWS V14.01,2015-07-06 15:22:00,
2015-07-06 11:23:00,92.3,78.4,30.09,North,360,1.0,5.0,64,0.00,,---,0.30,VWS V14.01,2015-07-06 15:23:00,
2015-07-06 11:24:00,92.3,78.4,30.09,North,9,1.0,5.0,64,0.00,,---,0.30,VWS V14.01,2015-07-06 15:24:00,
2015-07-06 11:25:00,92.3,77.4,30.09,North,5,1.0,5.0,62,0.00,,---,0.30,VWS V14.01,2015-07-06 15:25:00,
2015-07-06 11:26:00,92.3,77.9,30.09,North,5,1.0,5.0,63,0.00,,---,0.30,VWS V14.01,2015-07-06 15:26:00,
2015-07-06 11:27:00,92.3,76.9,30.09,North,9,3.0,5.0,61,0.00,,---,0.30,VWS V14.01,2015-07-06 15:27:00,
2015-07-06 11:28:00,92.5,78.1,30.09,North,9,0.0,5.0,63,0.00,,---,0.30,VWS V14.01,2015-07-06 15:28:00,
2015-07-06 11:29:00,92.5,78.1,30.09,East,80,4.0,5.0,63,0.00,,---,0.30,VWS V14.01,2015-07-06 15:29:00,
2015-07-06 11:30:00,92.7,77.3,30.09,East,94,4.0,5.0,61,0.00,,---,0.30,VWS V14.01,2015-07-06 15:30:00,
2015-07-06 11:31:00,92.7,76.3,30.09,East,101,4.0,6.0,59,0.00,,---,0.30,VWS V14.01,2015-07-06 15:31:00,
2015-07-06 11:32:00,92.7,76.3,30.09,East,101,2.0,6.0,59,0.00,,---,0.30,VWS V14.01,2015-07-06 15:32:00,
2015-07-06 11:33:00,92.9,77.0,30.09,East,101,2.0,6.0,60,0.00,,---,0.30,VWS V14.01,2015-07-06 15:33:00,
2015-07-06 11:34:00,92.9,75.9,30.09,ESE,111,4.0,6.0,58,0.00,,---,0.30,VWS V14.01,2015-07-06 15:34:00,
2015-07-06 11:35:00,92.9,75.4,30.09,ESE,111,3.0,6.0,57,0.00,,---,0.30,VWS V14.01,2015-07-06 15:35:00,
2015-07-06 11:36:00,93.2,75.7,30.09,ESE,111,2.0,6.0,57,0.00,,---,0.30,VWS V14.01,2015-07-06 15:36:00,
2015-07-06 11:37:00,93.2,75.7,30.09,ESE,110,3.0,6.0,57,0.00,,---,0.30,VWS V14.01,2015-07-06 15:37:00,
2015-07-06 11:38:00,93.2,75.7,30.09,ESE,110,2.0,6.0,57,0.00,,---,0.30,VWS V14.01,2015-07-06 15:38:00,
2015-07-06 11:39:00,93.2,75.7,30.09,ESE,110,3.0,6.0,57,0.00,,---,0.30,VWS V14.01,2015-07-06 15:39:00,
2015-07-06 11:40:00,93.2,75.7,30.09,ESE,110,1.0,6.0,57,0.00,,---,0.30,VWS V14.01,2015-07-06 15:40:00,
2015-07-06 11:41:00,93.2,76.8,30.09,ESE,110,1.0,6.0,59,0.00,,---,0.30,VWS V14.01,2015-07-06 15:41:00,
2015-07-06 11:42:00,93.4,76.4,30.09,ESE,110,4.0,6.0,58,0.00,,---,0.30,VWS V14.01,2015-07-06 15:42:00,
2015-07-06 11:43:00,93.2,75.7,30.09,ESE,110,2.0,6.0,57,0.00,,---,0.30,VWS V14.01,2015-07-06 15:43:00,
2015-07-06 11:44:00,93.2,75.2,30.09,ESE,110,2.0,6.0,56,0.00,,---,0.30,VWS V14.01,2015-07-06 15:44:00,
2015-07-06 11:45:00,93.2,76.2,30.09,ESE,110,3.0,6.0,58,0.00,,---,0.30,VWS V14.01,2015-07-06 15:45:00,
2015-07-06 11:46:00,93.2,75.2,30.09,ESE,110,0.0,6.0,56,0.00,,---,0.30,VWS V14.01,2015-07-06 15:46:00,
2015-07-06 11:47:00,93.2,75.7,30.09,ESE,111,2.0,6.0,57,0.00,,---,0.30,VWS V14.01,2015-07-06 15:47:00,
2015-07-06 11:48:00,93.2,76.2,30.09,ESE,111,3.0,6.0,58,0.00,,---,0.30,VWS V14.01,2015-07-06 15:48:00,
2015-07-06 11:49:00,93.2,76.8,30.09,ESE,111,0.0,6.0,59,0.00,,---,0.30,VWS V14.01,2015-07-06 15:49:00,
2015-07-06 11:50:00,93.4,76.4,30.09,ESE,111,1.0,6.0,58,0.00,,---,0.30,VWS V14.01,2015-07-06 15:50:00,
2015-07-06 11:51:00,93.4,75.9,30.09,ESE,111,0.0,6.0,57,0.00,,---,0.30,VWS V14.01,2015-07-06 15:51:00,
2015-07-06 11:52:00,93.2,75.7,30.09,ESE,111,3.0,6.0,57,0.00,,---,0.30,VWS V14.01,2015-07-06 15:52:00,
2015-07-06 11:53:00,93.2,76.2,30.09,ESE,111,2.0,6.0,58,0.00,,---,0.30,VWS V14.01,2015-07-06 15:53:00,
2015-07-06 11:54:00,92.9,75.9,30.09,ESE,111,4.0,6.0,58,0.00,,---,0.30,VWS V14.01,2015-07-06 15:54:00,
2015-07-06 11:55:00,92.9,75.9,30.09,ESE,111,1.0,6.0,58,0.00,,---,0.30,VWS V14.01,2015-07-06 15:55:00,
2015-07-06 11:56:00,92.9,77.0,30.09,ESE,111,0.0,6.0,60,0.00,,---,0.30,VWS V14.01,2015-07-06 15:56:00,
2015-07-06 11:57:00,93.2,77.8,30.09,ESE,111,0.0,6.0,61,0.00,,---,0.30,VWS V14.01,2015-07-06 15:57:00,
2015-07-06 11:58:00,93.2,77.3,30.09,ESE,111,4.0,6.0,60,0.00,,---,0.30,VWS V14.01,2015-07-06 15:58:00,
2015-07-06 11:59:00,93.2,76.2,30.09,ESE,111,2.0,6.0,58,0.00,,---,0.30,VWS V14.01,2015-07-06 15:59:00,
2015-07-06 12:00:00,93.2,76.2,30.09,ESE,113,5.0,6.0,58,0.00,,---,0.30,VWS V14.01,2015-07-06 16:00:00,
2015-07-06 12:01:00,93.2,76.2,30.09,East,85,5.0,6.0,58,0.00,,---,0.30,VWS V14.01,2015-07-06 16:01:00,
2015-07-06 12:02:00,93.2,75.7,30.09,East,85,5.0,6.0,57,0.00,,---,0.30,VWS V14.01,2015-07-06 16:02:00,
2015-07-06 12:03:00,93.4,76.9,30.09,East,85,3.0,6.0,59,0.00,,---,0.30,VWS V14.01,2015-07-06 16:03:00,
2015-07-06 12:04:00,93.4,76.4,30.09,East,86,1.0,6.0,58,0.00,,---,0.30,VWS V14.01,2015-07-06 16:04:00,
2015-07-06 12:05:00,93.4,76.4,30.09,East,96,2.0,6.0,58,0.00,,---,0.30,VWS V14.01,2015-07-06 16:05:00,
2015-07-06 12:06:00,93.4,75.9,30.09,East,101,1.0,6.0,57,0.00,,---,0.30,VWS V14.01,2015-07-06 16:06:00,
2015-07-06 12:07:00,93.6,76.6,30.09,East,101,3.0,6.0,58,0.00,,---,0.30,VWS V14.01,2015-07-06 16:07:00,
2015-07-06 12:08:00,93.6,76.6,30.09,ESE,102,2.0,6.0,58,0.00,,---,0.30,VWS V14.01,2015-07-06 16:08:00,
2015-07-06 12:09:00,93.6,77.1,30.09,ESE,102,0.0,6.0,59,0.00,,---,0.30,VWS V14.01,2015-07-06 16:09:00,
2015-07-06 12:10:00,93.8,77.8,30.09,ESE,102,3.0,6.0,60,0.00,,---,0.30,VWS V14.01,2015-07-06 16:10:00,
2015-07-06 12:11:00,93.8,76.8,30.09,ESE,103,4.0,6.0,58,0.00,,---,0.30,VWS V14.01,2015-07-06 16:11:00,
2015-07-06 12:12:00,93.8,76.3,30.09,ESE,105,6.0,6.0,57,0.00,,---,0.30,VWS V14.01,2015-07-06 16:12:00,
2015-07-06 12:13:00,93.8,75.7,30.09,ESE,109,4.0,6.0,56,0.00,,---,0.30,VWS V14.01,2015-07-06 16:13:00,
2015-07-06 12:14:00,94.0,75.9,30.09,ESE,109,3.0,6.0,56,0.00,,---,0.30,VWS V14.01,2015-07-06 16:14:00,
2015-07-06 12:15:00,94.0,76.5,30.09,ENE,57,4.0,6.0,57,0.00,,---,0.30,VWS V14.01,2015-07-06 16:15:00,
2015-07-06 12:16:00,94.0,76.5,30.09,SE,145,1.0,6.0,57,0.00,,---,0.30,VWS V14.01,2015-07-06 16:16:00,
2015-07-06 12:17:00,94.0,76.5,30.09,SE,144,3.0,6.0,57,0.00,,---,0.30,VWS V14.01,2015-07-06 16:17:00,
2015-07-06 12:18:00,94.3,76.7,30.09,SE,145,5.0,6.0,57,0.00,,---,0.30,VWS V14.01,2015-07-06 16:18:00,
2015-07-06 12:19:00,94.3,76.2,30.09,ESE,119,5.0,6.0,56,0.00,,---,0.30,VWS V14.01,2015-07-06 16:19:00,
2015-07-06 12:20:00,94.5,76.4,30.09,SE,124,2.0,6.0,56,0.00,,---,0.30,VWS V14.01,2015-07-06 16:20:00,
2015-07-06 12:21:00,94.5,76.9,30.09,SE,124,2.0,6.0,57,0.00,,---,0.30,VWS V14.01,2015-07-06 16:21:00,
2015-07-06 12:22:00,94.5,76.9,30.09,SE,125,2.0,6.0,57,0.00,,---,0.30,VWS V14.01,2015-07-06 16:22:00,
2015-07-06 12:23:00,94.7,77.1,30.09,SE,125,1.0,6.0,57,0.00,,---,0.30,VWS V14.01,2015-07-06 16:23:00,
2015-07-06 12:24:00,94.7,77.6,30.09,SE,125,5.0,6.0,58,0.00,,---,0.30,VWS V14.01,2015-07-06 16:24:00,
2015-07-06 12:25:00,94.7,76.6,30.09,SE,126,2.0,6.0,56,0.00,,---,0.30,VWS V14.01,2015-07-06 16:25:00,
2015-07-06 12:26:00,94.7,74.9,30.09,ESE,109,7.0,7.0,53,0.00,,---,0.30,VWS V14.01,2015-07-06 16:26:00,
2015-07-06 12:27:00,94.9,75.1,30.09,ESE,104,6.0,7.0,53,0.00,,---,0.30,VWS V14.01,2015-07-06 16:27:00,
2015-07-06 12:28:00,94.9,74.5,30.09,ESE,105,4.0,7.0,52,0.00,,---,0.30,VWS V14.01,2015-07-06 16:28:00,
2015-07-06 12:29:00,94.9,75.1,30.09,ESE,107,2.0,7.0,53,0.00,,---,0.30,VWS V14.01,2015-07-06 16:29:00,
2015-07-06 12:30:00,94.9,75.7,30.09,ESE,113,4.0,7.0,54,0.00,,---,0.30,VWS V14.01,2015-07-06 16:30:00,
2015-07-06 12:31:00,94.9,75.7,30.09,ESE,115,0.0,4.0,54,0.00,,---,0.30,VWS V14.01,2015-07-06 16:31:00,
2015-07-06 12:32:00,94.9,75.1,30.09,ESE,114,1.0,4.0,53,0.00,,---,0.30,VWS V14.01,2015-07-06 16:32:00,
2015-07-06 12:33:00,95.1,75.8,30.09,ESE,114,3.0,4.0,54,0.00,,---,0.30,VWS V14.01,2015-07-06 16:33:00,
2015-07-06 12:34:00,95.1,75.8,30.09,ESE,114,1.0,4.0,54,0.00,,---,0.30,VWS V14.01,2015-07-06 16:34:00,
2015-07-06 12:35:00,95.1,76.4,30.09,ESE,117,0.0,4.0,55,0.00,,---,0.30,VWS V14.01,2015-07-06 16:35:00,
2015-07-06 12:36:00,95.1,76.4,30.09,ESE,114,7.0,7.0,55,0.00,,---,0.30,VWS V14.01,2015-07-06 16:36:00,
2015-07-06 12:37:00,95.4,74.4,30.09,ESE,113,2.0,7.0,51,0.00,,---,0.30,VWS V14.01,2015-07-06 16:37:00,
2015-07-06 12:38:00,95.4,75.0,30.09,ESE,123,4.0,7.0,52,0.00,,---,0.30,VWS V14.01,2015-07-06 16:38:00,
2015-07-06 12:39:00,95.4,75.6,30.09,ESE,120,4.0,7.0,53,0.00,,---,0.30,VWS V14.01,2015-07-06 16:39:00,
2015-07-06 12:40:00,95.4,74.4,30.09,ESE,113,5.0,7.0,51,0.00,,---,0.30,VWS V14.01,2015-07-06 16:40:00,
2015-07-06 12:41:00,95.6,74.0,30.09,ESE,113,3.0,7.0,50,0.00,,---,0.30,VWS V14.01,2015-07-06 16:41:00,
2015-07-06 12:42:00,95.6,73.4,30.09,ESE,113,1.0,7.0,49,0.00,,---,0.30,VWS V14.01,2015-07-06 16:42:00,
2015-07-06 12:43:00,95.6,73.4,30.09,ESE,113,3.0,7.0,49,0.00,,---,0.30,VWS V14.01,2015-07-06 16:43:00,
2015-07-06 12:44:00,95.6,74.6,30.09,ESE,113,0.0,7.0,51,0.00,,---,0.30,VWS V14.01,2015-07-06 16:44:00,
2015-07-06 12:45:00,95.9,75.4,30.09,ESE,118,2.0,7.0,52,0.00,,---,0.30,VWS V14.01,2015-07-06 16:45:00,
2015-07-06 12:46:00,95.9,74.3,30.09,ESE,121,3.0,7.0,50,0.00,,---,0.30,VWS V14.01,2015-07-06 16:46:00,
2015-07-06 12:47:00,96.1,74.5,30.09,ESE,121,1.0,7.0,50,0.00,,---,0.30,VWS V14.01,2015-07-06 16:47:00,
2015-07-06 12:48:00,96.1,75.1,30.09,ESE,121,3.0,7.0,51,0.00,,---,0.30,VWS V14.01,2015-07-06 16:48:00,
2015-07-06 12:49:00,96.1,74.5,30.09,East,97,6.0,7.0,50,0.00,,---,0.30,VWS V14.01,2015-07-06 16:49:00,
2015-07-06 12:50:00,96.1,73.2,30.09,East,84,5.0,10.0,48,0.00,,---,0.30,VWS V14.01,2015-07-06 16:50:00,
2015-07-06 12:51:00,96.1,75.1,30.09,East,92,3.0,10.0,51,0.00,,---,0.30,VWS V14.01,2015-07-06 16:51:00,
2015-07-06 12:52:00,96.1,75.1,30.09,East,93,3.0,10.0,51,0.00,,---,0.30,VWS V14.01,2015-07-06 16:52:00,
2015-07-06 12:53:00,96.3,75.2,30.09,East,93,1.0,10.0,51,0.00,,---,0.30,VWS V14.01,2015-07-06 16:53:00,
2015-07-06 12:54:00,96.3,75.8,30.09,East,92,4.0,10.0,52,0.00,,---,0.30,VWS V14.01,2015-07-06 16:54:00,
2015-07-06 12:55:00,96.3,74.0,30.09,East,90,1.0,10.0,49,0.00,,---,0.30,VWS V14.01,2015-07-06 16:55:00,
2015-07-06 12:56:00,96.3,75.8,30.09,East,90,2.0,10.0,52,0.00,,---,0.30,VWS V14.01,2015-07-06 16:56:00,
2015-07-06 12:57:00,96.3,74.7,30.09,East,90,0.0,10.0,50,0.00,,---,0.30,VWS V14.01,2015-07-06 16:57:00,
2015-07-06 12:58:00,96.3,75.2,30.09,East,98,2.0,10.0,51,0.00,,---,0.30,VWS V14.01,2015-07-06 16:58:00,
2015-07-06 12:59:00,96.3,74.7,30.08,East,99,6.0,10.0,50,0.00,,---,0.30,VWS V14.01,2015-07-06 16:59:00,
2015-07-06 13:00:00,96.3,74.7,30.08,East,90,4.0,10.0,50,0.00,,---,0.30,VWS V14.01,2015-07-06 17:00:00,
2015-07-06 13:01:00,96.3,72.8,30.08,East,92,4.0,4.0,47,0.00,,---,0.30,VWS V14.01,2015-07-06 17:01:00,
2015-07-06 13:02:00,96.3,73.4,30.08,East,92,3.0,4.0,48,0.00,,---,0.30,VWS V14.01,2015-07-06 17:02:00,
2015-07-06 13:03:00,96.3,75.2,30.08,East,92,0.0,4.0,51,0.00,,---,0.30,VWS V14.01,2015-07-06 17:03:00,
2015-07-06 13:04:00,96.3,75.2,30.08,East,92,1.0,4.0,51,0.00,,---,0.30,VWS V14.01,2015-07-06 17:04:00,
2015-07-06 13:05:00,96.6,74.3,30.08,East,100,10.0,10.0,49,0.00,,---,0.30,VWS V14.01,2015-07-06 17:05:00,
2015-07-06 13:06:00,96.6,73.7,30.08,ESE,114,3.0,10.0,48,0.00,,---,0.30,VWS V14.01,2015-07-06 17:06:00,
2015-07-06 13:07:00,96.3,74.0,30.08,ESE,114,1.0,10.0,49,0.00,,---,0.30,VWS V14.01,2015-07-06 17:07:00,
2015-07-06 13:08:00,96.3,74.7,30.08,ESE,114,2.0,10.0,50,0.00,,---,0.30,VWS V14.01,2015-07-06 17:08:00,
2015-07-06 13:09:00,96.6,74.3,30.08,ESE,114,3.0,10.0,49,0.00,,---,0.30,VWS V14.01,2015-07-06 17:09:00,
2015-07-06 13:10:00,96.6,74.3,30.08,ESE,115,4.0,10.0,49,0.00,,---,0.30,VWS V14.01,2015-07-06 17:10:00,
2015-07-06 13:11:00,96.6,73.7,30.08,ESE,115,2.0,10.0,48,0.00,,---,0.30,VWS V14.01,2015-07-06 17:11:00,
2015-07-06 13:12:00,96.6,74.3,30.08,ESE,118,2.0,10.0,49,0.00,,---,0.30,VWS V14.01,2015-07-06 17:12:00,
2015-07-06 13:13:00,96.6,74.9,30.08,ESE,107,4.0,10.0,50,0.00,,---,0.30,VWS V14.01,2015-07-06 17:13:00,
2015-07-06 13:14:00,96.6,74.9,30.08,ESE,108,3.0,10.0,50,0.00,,---,0.30,VWS V14.01,2015-07-06 17:14:00,
2015-07-06 13:15:00,96.3,74.0,30.08,ESE,107,4.0,10.0,49,0.00,,---,0.30,VWS V14.01,2015-07-06 17:15:00,
2015-07-06 13:16:00,96.3,74.7,30.08,East,98,3.0,10.0,50,0.00,,---,0.30,VWS V14.01,2015-07-06 17:16:00,
2015-07-06 13:17:00,96.3,75.2,30.08,East,98,5.0,10.0,51,0.00,,---,0.30,VWS V14.01,2015-07-06 17:17:00,
2015-07-06 13:18:00,96.1,74.5,30.08,East,98,3.0,10.0,50,0.00,,---,0.30,VWS V14.01,2015-07-06 17:18:00,
2015-07-06 13:19:00,96.1,74.5,30.08,East,98,2.0,10.0,50,0.00,,---,0.30,VWS V14.01,2015-07-06 17:19:00,
2015-07-06 13:20:00,96.1,75.1,30.08,ESE,113,4.0,10.0,51,0.00,,---,0.30,VWS V14.01,2015-07-06 17:20:00,
2015-07-06 13:21:00,96.1,74.5,30.08,ESE,113,4.0,10.0,50,0.00,,---,0.30,VWS V14.01,2015-07-06 17:21:00,
2015-07-06 13:22:00,96.1,73.9,30.08,East,93,6.0,10.0,49,0.00,,---,0.30,VWS V14.01,2015-07-06 17:22:00,
2015-07-06 13:23:00,95.9,73.7,30.08,ESE,105,5.0,10.0,49,0.00,,---,0.30,VWS V14.01,2015-07-06 17:23:00,
2015-07-06 13:24:00,95.9,75.4,30.08,ESE,105,4.0,10.0,52,0.00,,---,0.30,VWS V14.01,2015-07-06 17:24:00,
2015-07-06 13:25:00,95.9,74.9,30.08,ESE,106,6.0,10.0,51,0.00,,---,0.30,VWS V14.01,2015-07-06 17:25:00,
2015-07-06 13:26:00,95.9,74.9,30.08,ESE,113,3.0,10.0,51,0.00,,---,0.30,VWS V14.01,2015-07-06 17:26:00,
2015-07-06 13:27:00,95.9,73.7,30.08,ESE,111,3.0,10.0,49,0.00,,---,0.30,VWS V14.01,2015-07-06 17:27:00,
2015-07-06 13:28:00,95.9,73.7,30.08,ESE,111,2.0,10.0,49,0.00,,---,0.30,VWS V14.01,2015-07-06 17:28:00,
2015-07-06 13:29:00,95.9,74.9,30.07,ESE,111,0.0,10.0,51,0.00,,---,0.30,VWS V14.01,2015-07-06 17:29:00,
2015-07-06 13:30:00,95.9,74.3,30.07,East,82,6.0,10.0,50,0.00,,---,0.30,VWS V14.01,2015-07-06 17:30:00,
2015-07-06 13:31:00,95.9,74.3,30.07,East,86,6.0,7.0,50,0.00,,---,0.30,VWS V14.01,2015-07-06 17:31:00,
2015-07-06 13:32:00,95.9,73.7,30.07,East,84,4.0,7.0,49,0.00,,---,0.30,VWS V14.01,2015-07-06 17:32:00,
2015-07-06 13:33:00,95.6,73.4,30.07,East,85,2.0,7.0,49,0.00,,---,0.30,VWS V14.01,2015-07-06 17:33:00,
2015-07-06 13:34:00,95.6,74.6,30.07,East,86,0.0,7.0,51,0.00,,---,0.30,VWS V14.01,2015-07-06 17:34:00,
2015-07-06 13:35:00,95.6,74.6,30.07,East,85,5.0,7.0,51,0.00,,---,0.30,VWS V14.01,2015-07-06 17:35:00,
2015-07-06 13:36:00,95.6,74.0,30.07,East,85,2.0,7.0,50,0.00,,---,0.30,VWS V14.01,2015-07-06 17:36:00,
2015-07-06 13:37:00,95.6,75.2,30.07,East,86,3.0,7.0,52,0.00,,---,0.30,VWS V14.01,2015-07-06 17:37:00,
2015-07-06 13:38:00,95.6,74.6,30.07,East,86,4.0,7.0,51,0.00,,---,0.30,VWS V14.01,2015-07-06 17:38:00,
2015-07-06 13:39:00,95.4,73.8,30.07,East,86,4.0,7.0,50,0.00,,---,0.30,VWS V14.01,2015-07-06 17:39:00,
2015-07-06 13:40:00,95.4,75.0,30.07,East,86,3.0,7.0,52,0.00,,---,0.30,VWS V14.01,2015-07-06 17:40:00,
2015-07-06 13:41:00,95.4,74.4,30.07,East,86,3.0,7.0,51,0.00,,---,0.30,VWS V14.01,2015-07-06 17:41:00,
2015-07-06 13:42:00,95.1,74.7,30.07,East,86,0.0,7.0,52,0.00,,---,0.30,VWS V14.01,2015-07-06 17:42:00,
2015-07-06 13:43:00,95.1,74.7,30.07,East,86,2.0,7.0,52,0.00,,---,0.30,VWS V14.01,2015-07-06 17:43:00,
2015-07-06 13:44:00,95.1,75.3,30.07,East,88,5.0,7.0,53,0.00,,---,0.30,VWS V14.01,2015-07-06 17:44:00,
2015-07-06 13:45:00,94.9,73.9,30.07,East,88,4.0,7.0,51,0.00,,---,0.30,VWS V14.01,2015-07-06 17:45:00,
2015-07-06 13:46:00,94.7,73.8,30.07,East,88,2.0,7.0,51,0.00,,---,0.30,VWS V14.01,2015-07-06 17:46:00,
2015-07-06 13:47:00,94.7,74.3,30.07,East,92,1.0,7.0,52,0.00,,---,0.30,VWS V14.01,2015-07-06 17:47:00,
2015-07-06 13:48:00,94.5,74.7,30.07,East,92,1.0,7.0,53,0.00,,---,0.30,VWS V14.01,2015-07-06 17:48:00,
2015-07-06 13:49:00,94.5,74.7,30.07,East,92,2.0,7.0,53,0.00,,---,0.30,VWS V14.01,2015-07-06 17:49:00,
2015-07-06 13:50:00,94.3,74.6,30.07,East,92,3.0,7.0,53,0.00,,---,0.30,VWS V14.01,2015-07-06 17:50:00,
2015-07-06 13:51:00,94.0,74.3,30.07,East,92,3.0,7.0,53,0.00,,---,0.30,VWS V14.01,2015-07-06 17:51:00,
2015-07-06 13:52:00,94.0,74.3,30.07,East,92,0.0,7.0,53,0.00,,---,0.30,VWS V14.01,2015-07-06 17:52:00,
2015-07-06 13:53:00,94.0,74.8,30.07,East,92,1.0,7.0,54,0.00,,---,0.30,VWS V14.01,2015-07-06 17:53:00,
2015-07-06 13:54:00,93.8,75.2,30.07,East,93,5.0,7.0,55,0.00,,---,0.30,VWS V14.01,2015-07-06 17:54:00,
2015-07-06 13:55:00,93.8,75.2,30.07,East,93,3.0,7.0,55,0.00,,---,0.30,VWS V14.01,2015-07-06 17:55:00,
2015-07-06 13:56:00,93.6,75.0,30.07,East,93,3.0,7.0,55,0.00,,---,0.30,VWS V14.01,2015-07-06 17:56:00,
2015-07-06 13:57:00,93.6,75.0,30.07,East,93,4.0,7.0,55,0.00,,---,0.30,VWS V14.01,2015-07-06 17:57:00,
2015-07-06 13:58:00,93.4,74.8,30.07,East,90,5.0,7.0,55,0.00,,---,0.30,VWS V14.01,2015-07-06 17:58:00,
2015-07-06 13:59:00,93.4,74.8,30.07,East,90,2.0,7.0,55,0.00,,---,0.30,VWS V14.01,2015-07-06 17:59:00,
2015-07-06 14:00:00,93.2,75.2,30.07,East,90,1.0,7.0,56,0.00,,---,0.30,VWS V14.01,2015-07-06 18:00:00,
2015-07-06 14:01:00,93.2,74.6,30.07,East,90,2.0,2.0,55,0.00,,---,0.30,VWS V14.01,2015-07-06 18:01:00,
2015-07-06 14:02:00,92.9,74.9,30.07,East,90,2.0,3.0,56,0.00,,---,0.30,VWS V14.01,2015-07-06 18:02:00,
2015-07-06 14:03:00,92.9,74.9,30.07,East,90,0.0,3.0,56,0.00,,---,0.30,VWS V14.01,2015-07-06 18:03:00,
2015-07-06 14:04:00,92.9,74.9,30.07,East,90,0.0,3.0,56,0.00,,---,0.30,VWS V14.01,2015-07-06 18:04:00,
2015-07-06 14:05:00,92.7,75.2,30.07,East,90,1.0,3.0,57,0.00,,---,0.30,VWS V14.01,2015-07-06 18:05:00,
2015-07-06 14:06:00,92.7,74.7,30.07,East,90,1.0,3.0,56,0.00,,---,0.30,VWS V14.01,2015-07-06 18:06:00,
2015-07-06 14:07:00,92.7,75.2,30.07,East,90,1.0,3.0,57,0.00,,---,0.30,VWS V14.01,2015-07-06 18:07:00,
2015-07-06 14:08:00,92.5,75.6,30.07,East,90,0.0,3.0,58,0.00,,---,0.30,VWS V14.01,2015-07-06 18:08:00,
2015-07-06 14:09:00,92.5,75.6,30.07,East,90,0.0,3.0,58,0.00,,---,0.30,VWS V14.01,2015-07-06 18:09:00,
2015-07-06 14:10:00,92.5,76.1,30.07,East,90,0.0,3.0,59,0.00,,---,0.30,VWS V14.01,2015-07-06 18:10:00,
2015-07-06 14:11:00,92.5,75.1,30.07,East,90,0.0,3.0,57,0.00,,---,0.30,VWS V14.01,2015-07-06 18:11:00,
2015-07-06 14:12:00,92.3,74.9,30.07,East,90,0.0,3.0,57,0.00,,---,0.30,VWS V14.01,2015-07-06 18:12:00,
2015-07-06 14:13:00,92.3,74.3,30.07,East,90,0.0,3.0,56,0.00,,---,0.30,VWS V14.01,2015-07-06 18:13:00,
2015-07-06 14:14:00,92.1,74.2,30.07,East,90,3.0,3.0,56,0.00,,---,0.30,VWS V14.01,2015-07-06 18:14:00,
2015-07-06 14:15:00,92.1,74.2,30.08,WNW,291,7.0,7.0,56,0.00,,---,0.30,VWS V14.01,2015-07-06 18:15:00,
2015-07-06 14:16:00,91.6,74.7,30.08,West,264,2.0,9.0,58,0.00,,---,0.30,VWS V14.01,2015-07-06 18:16:00,
2015-07-06 14:17:00,91.0,75.7,30.08,West,274,5.0,9.0,61,0.00,,---,0.30,VWS V14.01,2015-07-06 18:17:00,
2015-07-06 14:18:00,90.3,75.5,30.08,West,261,1.0,9.0,62,0.00,,---,0.30,VWS V14.01,2015-07-06 18:18:00,
2015-07-06 14:19:00,89.9,75.1,30.08,West,261,0.0,9.0,62,0.00,,---,0.30,VWS V14.01,2015-07-06 18:19:00,
2015-07-06 14:20:00,89.7,75.4,30.08,West,260,4.0,9.0,63,0.00,,---,0.30,VWS V14.01,2015-07-06 18:20:00,
2015-07-06 14:21:00,89.0,75.2,30.08,West,260,3.0,9.0,64,0.00,,---,0.30,VWS V14.01,2015-07-06 18:21:00,
2015-07-06 14:22:00,88.4,75.1,30.08,West,260,2.0,9.0,65,0.00,,---,0.30,VWS V14.01,2015-07-06 18:22:00,
2015-07-06 14:23:00,88.0,75.2,30.08,West,260,4.0,9.0,66,0.00,,---,0.30,VWS V14.01,2015-07-06 18:23:00,
2015-07-06 14:24:00,87.6,75.3,30.08,WNW,298,3.0,9.0,67,0.00,,---,0.30,VWS V14.01,2015-07-06 18:24:00,
2015-07-06 14:26:00,87.2,74.5,30.08,WNW,296,4.0,9.0,66,0.00,,---,0.30,VWS V14.01,2015-07-06 18:26:00,
2015-07-06 14:27:00,86.7,74.0,30.08,WNW,286,5.0,9.0,66,0.00,,---,0.30,VWS V14.01,2015-07-06 18:27:00,
2015-07-06 14:28:00,86.5,73.8,30.08,WNW,286,5.0,9.0,66,0.00,,---,0.30,VWS V14.01,2015-07-06 18:28:00,
2015-07-06 14:29:00,86.1,73.9,30.08,WNW,286,2.0,9.0,67,0.00,,---,0.30,VWS V14.01,2015-07-06 18:29:00,
2015-07-06 14:30:00,85.9,73.7,30.08,WNW,285,3.0,9.0,67,0.00,,---,0.30,VWS V14.01,2015-07-06 18:30:00,
2015-07-06 14:31:00,85.5,73.7,30.08,WNW,284,2.0,6.0,68,0.00,,---,0.30,VWS V14.01,2015-07-06 18:31:00,
2015-07-06 14:32:00,85.3,73.6,30.08,WNW,284,5.0,6.0,68,0.00,,---,0.30,VWS V14.01,2015-07-06 18:32:00,
2015-07-06 14:33:00,85.3,73.6,30.08,WNW,284,1.0,6.0,68,0.00,,---,0.30,VWS V14.01,2015-07-06 18:33:00,
2015-07-06 14:34:00,85.1,73.8,30.08,WNW,284,0.0,6.0,69,0.00,,---,0.30,VWS V14.01,2015-07-06 18:34:00,
2015-07-06 14:35:00,85.1,73.8,30.08,WNW,284,1.0,6.0,69,0.00,,---,0.30,VWS V14.01,2015-07-06 18:35:00,
2015-07-06 14:36:00,84.9,73.6,30.08,WNW,284,0.0,6.0,69,0.00,,---,0.30,VWS V14.01,2015-07-06 18:36:00,
2015-07-06 14:37:00,84.9,73.6,30.08,WNW,284,0.0,6.0,69,0.00,,---,0.30,VWS V14.01,2015-07-06 18:37:00,
2015-07-06 14:38:00,84.9,73.6,30.08,WNW,284,0.0,6.0,69,0.00,,---,0.30,VWS V14.01,2015-07-06 18:38:00,
2015-07-06 14:39:00,84.9,73.6,30.08,WNW,284,0.0,6.0,69,0.00,,---,0.30,VWS V14.01,2015-07-06 18:39:00,
2015-07-06 14:40:00,84.7,73.8,30.08,WNW,284,1.0,6.0,70,0.00,,---,0.30,VWS V14.01,2015-07-06 18:40:00,
2015-07-06 14:41:00,84.7,73.8,30.08,WNW,284,4.0,6.0,70,0.00,,---,0.30,VWS V14.01,2015-07-06 18:41:00,
2015-07-06 14:42:00,84.5,73.7,30.08,WNW,284,4.0,6.0,70,0.00,,---,0.30,VWS V14.01,2015-07-06 18:42:00,
2015-07-06 14:43:00,84.5,73.7,30.08,WNW,284,4.0,6.0,70,0.00,,---,0.30,VWS V14.01,2015-07-06 18:43:00,
2015-07-06 14:44:00,84.3,73.9,30.08,WNW,284,1.0,6.0,71,0.00,,---,0.30,VWS V14.01,2015-07-06 18:44:00,
2015-07-06 14:45:00,84.1,73.7,30.07,WNW,284,3.0,6.0,71,0.00,,---,0.30,VWS V14.01,2015-07-06 18:45:00,
2015-07-06 14:46:00,84.1,73.3,30.07,WNW,284,0.0,6.0,70,0.00,,---,0.30,VWS V14.01,2015-07-06 18:46:00,
2015-07-06 14:47:00,84.0,73.2,30.07,WNW,284,2.0,6.0,70,0.00,,---,0.30,VWS V14.01,2015-07-06 18:47:00,
2015-07-06 14:48:00,84.0,73.2,30.07,WNW,284,2.0,6.0,70,0.00,,---,0.30,VWS V14.01,2015-07-06 18:48:00,
2015-07-06 14:49:00,84.0,73.2,30.07,WNW,284,1.0,6.0,70,0.00,,---,0.30,VWS V14.01,2015-07-06 18:49:00,
2015-07-06 14:50:00,84.0,73.2,30.07,WNW,284,1.0,6.0,70,0.00,,---,0.30,VWS V14.01,2015-07-06 18:50:00,
2015-07-06 14:51:00,84.0,73.2,30.07,WNW,284,0.0,6.0,70,0.00,,---,0.30,VWS V14.01,2015-07-06 18:51:00,
2015-07-06 14:52:00,84.0,73.2,30.07,WNW,284,0.0,6.0,70,0.00,,---,0.30,VWS V14.01,2015-07-06 18:52:00,
2015-07-06 14:53:00,83.8,73.0,30.07,WNW,284,0.0,6.0,70,0.00,,---,0.30,VWS V14.01,2015-07-06 18:53:00,
2015-07-06 14:54:00,83.8,73.0,30.07,WNW,284,0.0,6.0,70,0.00,,---,0.30,VWS V14.01,2015-07-06 18:54:00,
2015-07-06 14:55:00,83.8,73.0,30.07,WNW,284,0.0,6.0,70,0.00,,---,0.30,VWS V14.01,2015-07-06 18:55:00,
2015-07-06 14:56:00,83.8,73.0,30.07,WNW,284,0.0,6.0,70,0.00,,---,0.30,VWS V14.01,2015-07-06 18:56:00,
2015-07-06 14:58:00,83.6,72.8,30.07,WNW,284,0.0,6.0,70,0.00,,---,0.30,VWS V14.01,2015-07-06 18:58:00,
2015-07-06 14:59:00,83.6,72.8,30.07,WNW,284,0.0,6.0,70,0.00,,---,0.30,VWS V14.01,2015-07-06 18:59:00,
2015-07-06 15:00:00,83.6,73.2,30.06,WNW,284,0.0,6.0,71,0.00,,---,0.30,VWS V14.01,2015-07-06 19:00:00,
2015-07-06 15:01:00,83.6,73.2,30.06,WNW,284,0.0,0.0,71,0.00,,---,0.30,VWS V14.01,2015-07-06 19:01:00,
2015-07-06 15:02:00,83.6,73.2,30.06,WNW,284,0.0,0.0,71,0.00,,---,0.30,VWS V14.01,2015-07-06 19:02:00,
2015-07-06 15:03:00,83.6,73.6,30.06,WNW,284,0.0,0.0,72,0.00,,---,0.30,VWS V14.01,2015-07-06 19:03:00,
2015-07-06 15:04:00,83.6,73.2,30.06,WNW,284,0.0,0.0,71,0.00,,---,0.30,VWS V14.01,2015-07-06 19:04:00,
2015-07-06 15:05:00,83.6,73.2,30.06,WNW,284,1.0,1.0,71,0.00,,---,0.30,VWS V14.01,2015-07-06 19:05:00,
2015-07-06 15:06:00,83.6,73.6,30.06,WNW,284,0.0,1.0,72,0.00,,---,0.30,VWS V14.01,2015-07-06 19:06:00,
2015-07-06 15:07:00,83.6,73.6,30.06,WNW,284,1.0,1.0,72,0.00,,---,0.30,VWS V14.01,2015-07-06 19:07:00,
2015-07-06 15:08:00,83.6,73.6,30.06,WNW,284,1.0,1.0,72,0.00,,---,0.30,VWS V14.01,2015-07-06 19:08:00,
2015-07-06 15:09:00,83.6,74.0,30.06,WNW,284,1.0,1.0,73,0.00,,---,0.30,VWS V14.01,2015-07-06 19:09:00,
2015-07-06 15:10:00,83.6,73.6,30.06,WNW,284,3.0,3.0,72,0.00,,---,0.30,VWS V14.01,2015-07-06 19:10:00,
2015-07-06 15:11:00,83.4,73.8,30.06,WNW,284,2.0,4.0,73,0.00,,---,0.30,VWS V14.01,2015-07-06 19:11:00,
2015-07-06 15:12:00,83.4,74.2,30.06,WNW,284,3.0,4.0,74,0.00,,---,0.30,VWS V14.01,2015-07-06 19:12:00,
2015-07-06 15:13:00,83.4,74.2,30.06,West,281,4.0,7.0,74,0.00,,---,0.30,VWS V14.01,2015-07-06 19:13:00,
2015-07-06 15:14:00,83.2,74.1,30.06,West,280,4.0,7.0,74,0.00,,---,0.30,VWS V14.01,2015-07-06 19:14:00,
2015-07-06 15:15:00,83.0,74.3,30.06,West,281,4.0,7.0,75,0.00,,---,0.30,VWS V14.01,2015-07-06 19:15:00,
2015-07-06 15:16:00,83.0,74.7,30.06,West,280,3.0,7.0,76,0.00,,---,0.30,VWS V14.01,2015-07-06 19:16:00,
2015-07-06 15:17:00,82.8,74.1,30.06,West,281,4.0,7.0,75,0.00,,---,0.30,VWS V14.01,2015-07-06 19:17:00,
2015-07-06 15:18:00,82.8,74.5,30.06,West,281,2.0,7.0,76,0.00,,---,0.30,VWS V14.01,2015-07-06 19:18:00,
2015-07-06 15:19:00,82.6,74.7,30.06,West,281,2.0,7.0,77,0.00,,---,0.30,VWS V14.01,2015-07-06 19:19:00,
2015-07-06 15:20:00,82.6,74.7,30.06,West,281,2.0,7.0,77,0.00,,---,0.30,VWS V14.01,2015-07-06 19:20:00,
2015-07-06 15:21:00,82.6,75.4,30.06,WNW,283,4.0,7.0,79,0.00,,---,0.30,VWS V14.01,2015-07-06 19:21:00,
2015-07-06 15:22:00,82.8,76.0,30.06,WNW,284,2.0,7.0,80,0.00,,---,0.30,VWS V14.01,2015-07-06 19:22:00,
2015-07-06 15:23:00,82.8,76.0,30.06,WNW,284,0.0,7.0,80,0.00,,---,0.30,VWS V14.01,2015-07-06 19:23:00,
2015-07-06 15:24:00,82.8,76.0,30.06,WNW,284,1.0,7.0,80,0.00,,---,0.30,VWS V14.01,2015-07-06 19:24:00,
2015-07-06 15:25:00,82.8,76.4,30.06,WNW,284,0.0,7.0,81,0.00,,---,0.30,VWS V14.01,2015-07-06 19:25:00,
2015-07-06 15:26:00,82.8,76.4,30.06,WNW,284,0.0,7.0,81,0.00,,---,0.30,VWS V14.01,2015-07-06 19:26:00,
2015-07-06 15:27:00,82.8,76.4,30.06,WNW,284,0.0,7.0,81,0.00,,---,0.30,VWS V14.01,2015-07-06 19:27:00,
2015-07-06 15:28:00,82.8,76.4,30.06,WNW,284,0.0,7.0,81,0.00,,---,0.30,VWS V14.01,2015-07-06 19:28:00,
2015-07-06 15:29:00,83.0,76.9,30.06,WNW,284,0.0,7.0,82,0.00,,---,0.30,VWS V14.01,2015-07-06 19:29:00,
2015-07-06 15:30:00,83.0,76.6,30.05,WNW,284,1.0,7.0,81,0.00,,---,0.30,VWS V14.01,2015-07-06 19:30:00,
2015-07-06 15:31:00,83.0,76.6,30.05,WNW,284,1.0,3.0,81,0.00,,---,0.30,VWS V14.01,2015-07-06 19:31:00,
2015-07-06 15:32:00,83.0,76.6,30.05,WNW,284,5.0,5.0,81,0.00,,---,0.30,VWS V14.01,2015-07-06 19:32:00,
2015-07-06 15:33:00,83.0,76.9,30.05,WNW,284,3.0,5.0,82,0.00,,---,0.30,VWS V14.01,2015-07-06 19:33:00,
2015-07-06 15:34:00,83.2,77.1,30.05,WNW,284,2.0,5.0,82,0.00,,---,0.30,VWS V14.01,2015-07-06 19:34:00,
2015-07-06 15:35:00,83.2,77.1,30.05,WNW,284,2.0,5.0,82,0.00,,---,0.30,VWS V14.01,2015-07-06 19:35:00,
2015-07-06 15:36:00,83.2,77.1,30.05,WNW,284,2.0,5.0,82,0.00,,---,0.30,VWS V14.01,2015-07-06 19:36:00,
2015-07-06 15:37:00,83.4,77.3,30.05,WNW,284,3.0,5.0,82,0.00,,---,0.30,VWS V14.01,2015-07-06 19:37:00,
2015-07-06 15:38:00,83.4,77.0,30.05,WNW,284,3.0,5.0,81,0.00,,---,0.30,VWS V14.01,2015-07-06 19:38:00,
2015-07-06 15:39:00,83.4,77.0,30.05,WNW,284,3.0,5.0,81,0.00,,---,0.30,VWS V14.01,2015-07-06 19:39:00,
2015-07-06 15:40:00,83.6,77.2,30.05,WNW,284,4.0,5.0,81,0.00,,---,0.30,VWS V14.01,2015-07-06 19:40:00,
2015-07-06 15:41:00,83.6,77.2,30.05,WNW,284,2.0,5.0,81,0.00,,---,0.30,VWS V14.01,2015-07-06 19:41:00,
2015-07-06 15:42:00,83.6,77.2,30.05,WNW,284,5.0,6.0,81,0.00,,---,0.30,VWS V14.01,2015-07-06 19:42:00,
2015-07-06 15:43:00,83.6,77.2,30.05,WNW,284,3.0,6.0,81,0.00,,---,0.30,VWS V14.01,2015-07-06 19:43:00,
2015-07-06 15:44:00,83.8,77.7,30.05,WNW,284,2.0,6.0,82,0.00,,---,0.30,VWS V14.01,2015-07-06 19:44:00,
2015-07-06 15:45:00,84.0,77.9,30.05,WNW,284,1.0,6.0,82,0.00,,---,0.30,VWS V14.01,2015-07-06 19:45:00,
2015-07-06 15:46:00,84.0,77.9,30.05,WNW,284,0.0,6.0,82,0.00,,---,0.30,VWS V14.01,2015-07-06 19:46:00,
2015-07-06 15:47:00,84.1,77.6,30.05,WNW,284,1.0,6.0,81,0.00,,---,0.30,VWS V14.01,2015-07-06 19:47:00,
2015-07-06 15:48:00,84.1,77.6,30.05,WNW,284,2.0,6.0,81,0.00,,---,0.30,VWS V14.01,2015-07-06 19:48:00,
2015-07-06 15:49:00,84.3,77.8,30.05,WNW,284,0.0,6.0,81,0.00,,---,0.30,VWS V14.01,2015-07-06 19:49:00,
2015-07-06 15:50:00,84.5,78.0,30.05,WNW,284,1.0,6.0,81,0.00,,---,0.30,VWS V14.01,2015-07-06 19:50:00,
2015-07-06 15:51:00,84.7,78.2,30.05,WNW,284,1.0,6.0,81,0.00,,---,0.30,VWS V14.01,2015-07-06 19:51:00,
2015-07-06 15:52:00,84.9,77.7,30.05,WNW,284,0.0,6.0,79,0.00,,---,0.30,VWS V14.01,2015-07-06 19:52:00,
2015-07-06 15:53:00,85.1,77.9,30.05,WNW,284,0.0,6.0,79,0.00,,---,0.30,VWS V14.01,2015-07-06 19:53:00,
2015-07-06 15:54:00,85.3,77.7,30.05,WNW,284,0.0,6.0,78,0.00,,---,0.30,VWS V14.01,2015-07-06 19:54:00,
2015-07-06 15:55:00,85.7,76.9,30.05,WNW,284,0.0,6.0,75,0.00,,---,0.30,VWS V14.01,2015-07-06 19:55:00,
2015-07-06 15:56:00,86.1,77.2,30.05,WNW,284,1.0,6.0,75,0.00,,---,0.30,VWS V14.01,2015-07-06 19:56:00,
2015-07-06 15:57:00,86.3,76.6,30.05,WNW,284,0.0,6.0,73,0.00,,---,0.30,VWS V14.01,2015-07-06 19:57:00,
2015-07-06 15:58:00,86.7,76.2,30.05,WNW,284,0.0,6.0,71,0.00,,---,0.30,VWS V14.01,2015-07-06 19:58:00,
2015-07-06 15:59:00,87.2,76.7,30.03,WNW,284,3.0,6.0,71,0.00,,---,0.30,VWS V14.01,2015-07-06 19:59:00,
2015-07-06 16:00:00,87.4,76.8,30.03,WNW,284,1.0,6.0,71,0.00,,---,0.30,VWS V14.01,2015-07-06 20:00:00,
2015-07-06 16:01:00,87.6,76.6,30.03,WNW,284,0.0,2.0,70,0.00,,---,0.30,VWS V14.01,2015-07-06 20:01:00,
2015-07-06 16:02:00,87.8,76.4,30.03,WNW,284,0.0,2.0,69,0.00,,---,0.30,VWS V14.01,2015-07-06 20:02:00,
2015-07-06 16:03:00,88.2,77.2,30.03,WNW,284,0.0,2.0,70,0.00,,---,0.30,VWS V14.01,2015-07-06 20:03:00,
2015-07-06 16:04:00,88.6,76.7,30.03,WNW,284,2.0,2.0,68,0.00,,---,0.30,VWS V14.01,2015-07-06 20:04:00,
2015-07-06 16:05:00,88.6,76.2,30.03,WNW,284,2.0,2.0,67,0.00,,---,0.30,VWS V14.01,2015-07-06 20:05:00,
2015-07-06 16:06:00,88.8,76.4,30.03,WNW,284,0.0,2.0,67,0.00,,---,0.30,VWS V14.01,2015-07-06 20:06:00,
2015-07-06 16:07:00,89.0,76.6,30.03,WNW,284,1.0,2.0,67,0.00,,---,0.30,VWS V14.01,2015-07-06 20:07:00,
2015-07-06 16:08:00,89.5,77.1,30.03,WNW,284,1.0,2.0,67,0.00,,---,0.30,VWS V14.01,2015-07-06 20:08:00,
2015-07-06 16:09:00,89.9,77.0,30.03,WNW,284,0.0,2.0,66,0.00,,---,0.30,VWS V14.01,2015-07-06 20:09:00,
2015-07-06 16:10:00,90.3,76.9,30.03,WNW,284,0.0,2.0,65,0.00,,---,0.30,VWS V14.01,2015-07-06 20:10:00,
2015-07-06 16:11:00,90.5,77.1,30.03,NE,49,6.0,6.0,65,0.00,,---,0.30,VWS V14.01,2015-07-06 20:11:00,
2015-07-06 16:12:00,90.5,76.2,30.03,NE,53,4.0,6.0,63,0.00,,---,0.30,VWS V14.01,2015-07-06 20:12:00,
2015-07-06 16:13:00,90.7,76.4,30.03,ENE,78,6.0,6.0,63,0.00,,---,0.30,VWS V14.01,2015-07-06 20:13:00,
2015-07-06 16:14:00,90.7,75.9,30.03,ENE,63,6.0,6.0,62,0.00,,---,0.30,VWS V14.01,2015-07-06 20:14:00,
2015-07-06 16:15:00,90.7,76.4,30.02,ENE,62,3.0,6.0,63,0.00,,---,0.30,VWS V14.01,2015-07-06 20:15:00,
2015-07-06 16:16:00,90.7,75.9,30.02,ENE,62,0.0,6.0,62,0.00,,---,0.30,VWS V14.01,2015-07-06 20:16:00,
2015-07-06 16:17:00,91.2,77.8,30.02,ENE,64,3.0,6.0,65,0.00,,---,0.30,VWS V14.01,2015-07-06 20:17:00,
2015-07-06 16:18:00,91.4,78.0,30.02,ENE,63,4.0,6.0,65,0.00,,---,0.30,VWS V14.01,2015-07-06 20:18:00,
2015-07-06 16:19:00,91.6,77.7,30.02,ENE,64,1.0,6.0,64,0.00,,---,0.30,VWS V14.01,2015-07-06 20:19:00,
2015-07-06 16:20:00,91.6,76.7,30.02,ENE,64,0.0,6.0,62,0.00,,---,0.30,VWS V14.01,2015-07-06 20:20:00,
2015-07-06 16:21:00,91.8,76.9,30.02,ENE,66,1.0,6.0,62,0.00,,---,0.30,VWS V14.01,2015-07-06 20:21:00,
2015-07-06 16:22:00,92.1,77.2,30.02,ENE,66,4.0,6.0,62,0.00,,---,0.30,VWS V14.01,2015-07-06 20:22:00,
2015-07-06 16:23:00,92.3,76.9,30.02,ENE,66,2.0,6.0,61,0.00,,---,0.30,VWS V14.01,2015-07-06 20:23:00,
2015-07-06 16:24:00,92.3,76.9,30.02,ESE,109,5.0,7.0,61,0.00,,---,0.30,VWS V14.01,2015-07-06 20:24:00,
2015-07-06 16:25:00,92.5,76.1,30.02,ESE,109,6.0,7.0,59,0.00,,---,0.30,VWS V14.01,2015-07-06 20:25:00,
2015-07-06 16:26:00,92.5,76.6,30.02,ESE,107,3.0,7.0,60,0.00,,---,0.30,VWS V14.01,2015-07-06 20:26:00,
2015-07-06 16:27:00,92.5,77.1,30.02,SE,135,1.0,7.0,61,0.00,,---,0.30,VWS V14.01,2015-07-06 20:27:00,
2015-07-06 16:29:00,92.9,77.0,30.02,ESE,115,5.0,7.0,60,0.00,,---,0.30,VWS V14.01,2015-07-06 20:29:00,
2015-07-06 16:30:00,92.9,77.0,30.02,ESE,110,5.0,7.0,60,0.00,,---,0.30,VWS V14.01,2015-07-06 20:30:00,
2015-07-06 16:31:00,92.9,77.0,30.02,ESE,109,2.0,5.0,60,0.00,,---,0.30,VWS V14.01,2015-07-06 20:31:00,